<?xml version="1.0" encoding="UTF-8" standalone="no" ?>
<gpx xmlns="http://www.topografix.com/GPX/1/1" xmlns:xsi="http://www.w3.org/2001/XMLSchema-instance" xsi:schemaLocation="http://www.topografix.com/GPX/1/1 http://www.topografix.com/GPX/1/1/gpx.xsd" version="1.1" creator="VisuGPX - https://www.visugpx.com">
  <metadata>
    <name>GIRLZTREC</name>
    <desc><![CDATA[Étape 1: Prapoutel - Refuge des 7 laux (au mieux un refuge non gardé comme ça on paye juste le second refuge?)
Étape 2: refuge des 7 laux - refuge de l’oule
Étape 3: Refuge de l’oule - col du Moretan - super dacia dokker de marce]]></desc>
  </metadata>
  <trk>
    <name><![CDATA[GIRLZTREC_3]]></name>
    <trkseg>
      <trkpt lat="45.3141" lon="6.13553">
        <ele>1828.89</ele>
        <time>2020-07-12T12:51:38Z</time>
      </trkpt>
      <trkpt lat="45.31419" lon="6.13558">
        <ele>1828.84</ele>
        <time>2020-07-12T12:44:48Z</time>
      </trkpt>
      <trkpt lat="45.3141" lon="6.1356">
        <ele>1833.88</ele>
        <time>2020-07-12T12:31:35Z</time>
      </trkpt>
      <trkpt lat="45.31402" lon="6.13565">
        <ele>1836.88</ele>
        <time>2020-07-12T12:31:22Z</time>
      </trkpt>
      <trkpt lat="45.31394" lon="6.13572">
        <ele>1833.88</ele>
        <time>2020-07-12T12:31:12Z</time>
      </trkpt>
      <trkpt lat="45.31385" lon="6.13579">
        <ele>1834.89</ele>
        <time>2020-07-12T12:31:01Z</time>
      </trkpt>
      <trkpt lat="45.31377" lon="6.13585">
        <ele>1837.91</ele>
        <time>2020-07-12T12:30:50Z</time>
      </trkpt>
      <trkpt lat="45.31368" lon="6.13591">
        <ele>1842.68</ele>
        <time>2020-07-12T12:30:38Z</time>
      </trkpt>
      <trkpt lat="45.3137" lon="6.13578">
        <ele>1844.88</ele>
        <time>2020-07-12T12:30:18Z</time>
      </trkpt>
      <trkpt lat="45.31361" lon="6.13577">
        <ele>1846.88</ele>
        <time>2020-07-12T12:30:00Z</time>
      </trkpt>
      <trkpt lat="45.31352" lon="6.13581">
        <ele>1852.08</ele>
        <time>2020-07-12T12:29:45Z</time>
      </trkpt>
      <trkpt lat="45.31343" lon="6.13588">
        <ele>1853.08</ele>
        <time>2020-07-12T12:29:25Z</time>
      </trkpt>
      <trkpt lat="45.31334" lon="6.13591">
        <ele>1859.89</ele>
        <time>2020-07-12T12:29:15Z</time>
      </trkpt>
      <trkpt lat="45.31325" lon="6.13587">
        <ele>1864.89</ele>
        <time>2020-07-12T12:28:15Z</time>
      </trkpt>
      <trkpt lat="45.31316" lon="6.13582">
        <ele>1868.89</ele>
        <time>2020-07-12T12:28:01Z</time>
      </trkpt>
      <trkpt lat="45.31309" lon="6.13592">
        <ele>1870.92</ele>
        <time>2020-07-12T12:27:44Z</time>
      </trkpt>
      <trkpt lat="45.31301" lon="6.13588">
        <ele>1881.09</ele>
        <time>2020-07-12T12:27:21Z</time>
      </trkpt>
      <trkpt lat="45.31293" lon="6.1358">
        <ele>1891.88</ele>
        <time>2020-07-12T12:26:54Z</time>
      </trkpt>
      <trkpt lat="45.31284" lon="6.13574">
        <ele>1894.09</ele>
        <time>2020-07-12T12:26:44Z</time>
      </trkpt>
      <trkpt lat="45.31276" lon="6.1357">
        <ele>1897.88</ele>
        <time>2020-07-12T12:26:32Z</time>
      </trkpt>
      <trkpt lat="45.31268" lon="6.13577">
        <ele>1901.88</ele>
        <time>2020-07-12T12:26:12Z</time>
      </trkpt>
      <trkpt lat="45.31264" lon="6.13589">
        <ele>1905.08</ele>
        <time>2020-07-12T12:25:52Z</time>
      </trkpt>
      <trkpt lat="45.31255" lon="6.13585">
        <ele>1907.88</ele>
        <time>2020-07-12T12:25:35Z</time>
      </trkpt>
      <trkpt lat="45.31248" lon="6.13576">
        <ele>1909.93</ele>
        <time>2020-07-12T12:25:27Z</time>
      </trkpt>
      <trkpt lat="45.31239" lon="6.13572">
        <ele>1912.88</ele>
        <time>2020-07-12T12:25:20Z</time>
      </trkpt>
      <trkpt lat="45.31238" lon="6.13559">
        <ele>1916.92</ele>
        <time>2020-07-12T12:25:11Z</time>
      </trkpt>
      <trkpt lat="45.31233" lon="6.13547">
        <ele>1922.08</ele>
        <time>2020-07-12T12:24:57Z</time>
      </trkpt>
      <trkpt lat="45.31224" lon="6.13551">
        <ele>1926.92</ele>
        <time>2020-07-12T12:24:45Z</time>
      </trkpt>
      <trkpt lat="45.31218" lon="6.13562">
        <ele>1927.88</ele>
        <time>2020-07-12T12:24:32Z</time>
      </trkpt>
      <trkpt lat="45.31215" lon="6.13574">
        <ele>1930.91</ele>
        <time>2020-07-12T12:24:22Z</time>
      </trkpt>
      <trkpt lat="45.31216" lon="6.13588">
        <ele>1932.08</ele>
        <time>2020-07-12T12:22:38Z</time>
      </trkpt>
      <trkpt lat="45.3121" lon="6.13597">
        <ele>1936.88</ele>
        <time>2020-07-12T12:22:21Z</time>
      </trkpt>
      <trkpt lat="45.31204" lon="6.13607">
        <ele>1938.87</ele>
        <time>2020-07-12T12:21:58Z</time>
      </trkpt>
      <trkpt lat="45.31199" lon="6.13619">
        <ele>1937.89</ele>
        <time>2020-07-12T12:21:40Z</time>
      </trkpt>
      <trkpt lat="45.31192" lon="6.13628">
        <ele>1944.75</ele>
        <time>2020-07-12T12:21:21Z</time>
      </trkpt>
      <trkpt lat="45.31184" lon="6.13634">
        <ele>1950.92</ele>
        <time>2020-07-12T12:21:01Z</time>
      </trkpt>
      <trkpt lat="45.31177" lon="6.13642">
        <ele>1959.89</ele>
        <time>2020-07-12T12:20:27Z</time>
      </trkpt>
      <trkpt lat="45.3117" lon="6.1365">
        <ele>1963.89</ele>
        <time>2020-07-12T12:20:06Z</time>
      </trkpt>
      <trkpt lat="45.31161" lon="6.13655">
        <ele>1968.89</ele>
        <time>2020-07-12T12:19:42Z</time>
      </trkpt>
      <trkpt lat="45.31152" lon="6.13661">
        <ele>1977.91</ele>
        <time>2020-07-12T12:19:07Z</time>
      </trkpt>
      <trkpt lat="45.31146" lon="6.1367">
        <ele>1980.08</ele>
        <time>2020-07-12T12:18:49Z</time>
      </trkpt>
      <trkpt lat="45.31137" lon="6.13675">
        <ele>1984.92</ele>
        <time>2020-07-12T12:18:34Z</time>
      </trkpt>
      <trkpt lat="45.31128" lon="6.13677">
        <ele>1994.87</ele>
        <time>2020-07-12T12:18:00Z</time>
      </trkpt>
      <trkpt lat="45.31122" lon="6.13666">
        <ele>2002.12</ele>
        <time>2020-07-12T12:17:26Z</time>
      </trkpt>
      <trkpt lat="45.31125" lon="6.13653">
        <ele>2010.89</ele>
        <time>2020-07-12T12:17:04Z</time>
      </trkpt>
      <trkpt lat="45.31115" lon="6.1365">
        <ele>2014.68</ele>
        <time>2020-07-12T12:16:45Z</time>
      </trkpt>
      <trkpt lat="45.31106" lon="6.13651">
        <ele>2016.92</ele>
        <time>2020-07-12T12:16:30Z</time>
      </trkpt>
      <trkpt lat="45.31097" lon="6.13651">
        <ele>2024.88</ele>
        <time>2020-07-12T12:16:05Z</time>
      </trkpt>
      <trkpt lat="45.31088" lon="6.13657">
        <ele>2025.08</ele>
        <time>2020-07-12T12:15:39Z</time>
      </trkpt>
      <trkpt lat="45.31081" lon="6.13666">
        <ele>2029.89</ele>
        <time>2020-07-12T12:15:21Z</time>
      </trkpt>
      <trkpt lat="45.31073" lon="6.13673">
        <ele>2033.69</ele>
        <time>2020-07-12T12:15:09Z</time>
      </trkpt>
      <trkpt lat="45.31065" lon="6.13666">
        <ele>2041.92</ele>
        <time>2020-07-12T12:14:40Z</time>
      </trkpt>
      <trkpt lat="45.31055" lon="6.13665">
        <ele>2045.89</ele>
        <time>2020-07-12T12:14:17Z</time>
      </trkpt>
      <trkpt lat="45.31046" lon="6.13668">
        <ele>2052.92</ele>
        <time>2020-07-12T12:13:53Z</time>
      </trkpt>
      <trkpt lat="45.31037" lon="6.13671">
        <ele>2053.89</ele>
        <time>2020-07-12T12:13:34Z</time>
      </trkpt>
      <trkpt lat="45.31029" lon="6.13677">
        <ele>2060.13</ele>
        <time>2020-07-12T12:13:18Z</time>
      </trkpt>
      <trkpt lat="45.31021" lon="6.13683">
        <ele>2065.89</ele>
        <time>2020-07-12T12:13:07Z</time>
      </trkpt>
      <trkpt lat="45.31013" lon="6.13692">
        <ele>2068.08</ele>
        <time>2020-07-12T12:12:55Z</time>
      </trkpt>
      <trkpt lat="45.31008" lon="6.13703">
        <ele>2070.85</ele>
        <time>2020-07-12T12:12:39Z</time>
      </trkpt>
      <trkpt lat="45.31002" lon="6.13714">
        <ele>2071.92</ele>
        <time>2020-07-12T12:12:27Z</time>
      </trkpt>
      <trkpt lat="45.30995" lon="6.13723">
        <ele>2077.88</ele>
        <time>2020-07-12T12:12:11Z</time>
      </trkpt>
      <trkpt lat="45.30989" lon="6.13732">
        <ele>2082.09</ele>
        <time>2020-07-12T12:11:56Z</time>
      </trkpt>
      <trkpt lat="45.30984" lon="6.13743">
        <ele>2086.92</ele>
        <time>2020-07-12T12:11:39Z</time>
      </trkpt>
      <trkpt lat="45.30977" lon="6.13753">
        <ele>2092.68</ele>
        <time>2020-07-12T12:11:11Z</time>
      </trkpt>
      <trkpt lat="45.30972" lon="6.13764">
        <ele>2095.92</ele>
        <time>2020-07-12T12:10:44Z</time>
      </trkpt>
      <trkpt lat="45.30967" lon="6.13775">
        <ele>2102.08</ele>
        <time>2020-07-12T12:10:21Z</time>
      </trkpt>
      <trkpt lat="45.30963" lon="6.13787">
        <ele>2106.89</ele>
        <time>2020-07-12T12:09:57Z</time>
      </trkpt>
      <trkpt lat="45.30957" lon="6.13797">
        <ele>2111.89</ele>
        <time>2020-07-12T12:09:38Z</time>
      </trkpt>
      <trkpt lat="45.30956" lon="6.13811">
        <ele>2114.88</ele>
        <time>2020-07-12T12:09:24Z</time>
      </trkpt>
      <trkpt lat="45.30955" lon="6.13824">
        <ele>2117.08</ele>
        <time>2020-07-12T12:09:13Z</time>
      </trkpt>
      <trkpt lat="45.30949" lon="6.13833">
        <ele>2124.08</ele>
        <time>2020-07-12T12:08:49Z</time>
      </trkpt>
      <trkpt lat="45.30951" lon="6.13846">
        <ele>2126.89</ele>
        <time>2020-07-12T12:08:38Z</time>
      </trkpt>
      <trkpt lat="45.30954" lon="6.1386">
        <ele>2129.68</ele>
        <time>2020-07-12T12:08:25Z</time>
      </trkpt>
      <trkpt lat="45.3096" lon="6.1387">
        <ele>2127.92</ele>
        <time>2020-07-12T12:08:09Z</time>
      </trkpt>
      <trkpt lat="45.30963" lon="6.13883">
        <ele>2128.84</ele>
        <time>2020-07-12T12:07:57Z</time>
      </trkpt>
      <trkpt lat="45.30958" lon="6.13896">
        <ele>2128.89</ele>
        <time>2020-07-12T12:07:47Z</time>
      </trkpt>
      <trkpt lat="45.30954" lon="6.13908">
        <ele>2129.68</ele>
        <time>2020-07-12T12:07:35Z</time>
      </trkpt>
      <trkpt lat="45.3095" lon="6.13919">
        <ele>2129.08</ele>
        <time>2020-07-12T12:07:27Z</time>
      </trkpt>
      <trkpt lat="45.30945" lon="6.13931">
        <ele>2132.72</ele>
        <time>2020-07-12T12:07:15Z</time>
      </trkpt>
      <trkpt lat="45.30943" lon="6.13944">
        <ele>2134.88</ele>
        <time>2020-07-12T12:07:04Z</time>
      </trkpt>
      <trkpt lat="45.30941" lon="6.13957">
        <ele>2136.88</ele>
        <time>2020-07-12T12:06:52Z</time>
      </trkpt>
      <trkpt lat="45.30939" lon="6.13971">
        <ele>2136.88</ele>
        <time>2020-07-12T12:06:34Z</time>
      </trkpt>
      <trkpt lat="45.30935" lon="6.13983">
        <ele>2137.88</ele>
        <time>2020-07-12T12:06:18Z</time>
      </trkpt>
      <trkpt lat="45.30935" lon="6.13996">
        <ele>2139.84</ele>
        <time>2020-07-12T12:06:05Z</time>
      </trkpt>
      <trkpt lat="45.30934" lon="6.14009">
        <ele>2140.12</ele>
        <time>2020-07-12T12:05:47Z</time>
      </trkpt>
      <trkpt lat="45.3093" lon="6.14022">
        <ele>2140.88</ele>
        <time>2020-07-12T12:05:26Z</time>
      </trkpt>
      <trkpt lat="45.30934" lon="6.14034">
        <ele>2141.88</ele>
        <time>2020-07-12T12:05:00Z</time>
      </trkpt>
      <trkpt lat="45.30939" lon="6.14045">
        <ele>2143.07</ele>
        <time>2020-07-12T12:04:15Z</time>
      </trkpt>
      <trkpt lat="45.30937" lon="6.14058">
        <ele>2134.88</ele>
        <time>2020-07-12T11:57:30Z</time>
      </trkpt>
      <trkpt lat="45.30928" lon="6.14062">
        <ele>2127.88</ele>
        <time>2020-07-12T11:57:02Z</time>
      </trkpt>
      <trkpt lat="45.30931" lon="6.14075">
        <ele>2128.88</ele>
        <time>2020-07-12T11:56:51Z</time>
      </trkpt>
      <trkpt lat="45.3093" lon="6.14088">
        <ele>2130.08</ele>
        <time>2020-07-12T11:56:40Z</time>
      </trkpt>
      <trkpt lat="45.30932" lon="6.14102">
        <ele>2133.68</ele>
        <time>2020-07-12T11:56:29Z</time>
      </trkpt>
      <trkpt lat="45.30935" lon="6.14115">
        <ele>2133.93</ele>
        <time>2020-07-12T11:56:20Z</time>
      </trkpt>
      <trkpt lat="45.30938" lon="6.14128">
        <ele>2135.91</ele>
        <time>2020-07-12T11:56:10Z</time>
      </trkpt>
      <trkpt lat="45.30938" lon="6.14141">
        <ele>2136.89</ele>
        <time>2020-07-12T11:56:00Z</time>
      </trkpt>
      <trkpt lat="45.30938" lon="6.14154">
        <ele>2138.68</ele>
        <time>2020-07-12T11:55:47Z</time>
      </trkpt>
      <trkpt lat="45.30933" lon="6.14166">
        <ele>2138.67</ele>
        <time>2020-07-12T11:55:39Z</time>
      </trkpt>
      <trkpt lat="45.3093" lon="6.1418">
        <ele>2138.92</ele>
        <time>2020-07-12T11:55:28Z</time>
      </trkpt>
      <trkpt lat="45.3093" lon="6.14193">
        <ele>2139.87</ele>
        <time>2020-07-12T11:55:17Z</time>
      </trkpt>
      <trkpt lat="45.30934" lon="6.14205">
        <ele>2139.9</ele>
        <time>2020-07-12T11:55:08Z</time>
      </trkpt>
      <trkpt lat="45.30937" lon="6.14217">
        <ele>2143.09</ele>
        <time>2020-07-12T11:54:57Z</time>
      </trkpt>
      <trkpt lat="45.30939" lon="6.1423">
        <ele>2147.09</ele>
        <time>2020-07-12T11:54:46Z</time>
      </trkpt>
      <trkpt lat="45.30939" lon="6.14243">
        <ele>2148.88</ele>
        <time>2020-07-12T11:54:35Z</time>
      </trkpt>
      <trkpt lat="45.3094" lon="6.14256">
        <ele>2148.08</ele>
        <time>2020-07-12T11:54:26Z</time>
      </trkpt>
      <trkpt lat="45.30938" lon="6.1427">
        <ele>2151.09</ele>
        <time>2020-07-12T11:54:15Z</time>
      </trkpt>
      <trkpt lat="45.30935" lon="6.14283">
        <ele>2153.85</ele>
        <time>2020-07-12T11:54:07Z</time>
      </trkpt>
      <trkpt lat="45.30935" lon="6.14296">
        <ele>2155.08</ele>
        <time>2020-07-12T11:53:59Z</time>
      </trkpt>
      <trkpt lat="45.30934" lon="6.1431">
        <ele>2160.88</ele>
        <time>2020-07-12T11:53:42Z</time>
      </trkpt>
      <trkpt lat="45.3093" lon="6.14324">
        <ele>2160.86</ele>
        <time>2020-07-12T11:53:32Z</time>
      </trkpt>
      <trkpt lat="45.30929" lon="6.14337">
        <ele>2161.89</ele>
        <time>2020-07-12T11:53:18Z</time>
      </trkpt>
      <trkpt lat="45.30928" lon="6.1435">
        <ele>2165.09</ele>
        <time>2020-07-12T11:53:08Z</time>
      </trkpt>
      <trkpt lat="45.30933" lon="6.14362">
        <ele>2164.72</ele>
        <time>2020-07-12T11:52:44Z</time>
      </trkpt>
      <trkpt lat="45.30933" lon="6.14376">
        <ele>2162.83</ele>
        <time>2020-07-12T11:52:30Z</time>
      </trkpt>
      <trkpt lat="45.30938" lon="6.14386">
        <ele>2163.89</ele>
        <time>2020-07-12T11:52:16Z</time>
      </trkpt>
      <trkpt lat="45.30944" lon="6.14396">
        <ele>2164.91</ele>
        <time>2020-07-12T11:52:01Z</time>
      </trkpt>
      <trkpt lat="45.30947" lon="6.14409">
        <ele>2166.12</ele>
        <time>2020-07-12T11:51:42Z</time>
      </trkpt>
      <trkpt lat="45.30944" lon="6.14421">
        <ele>2167.09</ele>
        <time>2020-07-12T11:51:32Z</time>
      </trkpt>
      <trkpt lat="45.30951" lon="6.14431">
        <ele>2172.84</ele>
        <time>2020-07-12T11:51:22Z</time>
      </trkpt>
      <trkpt lat="45.30959" lon="6.1444">
        <ele>2174.3</ele>
        <time>2020-07-12T11:51:09Z</time>
      </trkpt>
      <trkpt lat="45.30968" lon="6.14446">
        <ele>2179.68</ele>
        <time>2020-07-12T11:51:01Z</time>
      </trkpt>
      <trkpt lat="45.30978" lon="6.14448">
        <ele>2177.45</ele>
        <time>2020-07-12T11:50:53Z</time>
      </trkpt>
      <trkpt lat="45.30987" lon="6.14449">
        <ele>2175.88</ele>
        <time>2020-07-12T11:50:44Z</time>
      </trkpt>
      <trkpt lat="45.30998" lon="6.14449">
        <ele>2176.88</ele>
        <time>2020-07-12T11:50:21Z</time>
      </trkpt>
      <trkpt lat="45.31007" lon="6.14447">
        <ele>2179.92</ele>
        <time>2020-07-12T11:50:09Z</time>
      </trkpt>
      <trkpt lat="45.31016" lon="6.14446">
        <ele>2180.28</ele>
        <time>2020-07-12T11:49:58Z</time>
      </trkpt>
      <trkpt lat="45.31026" lon="6.1445">
        <ele>2184.88</ele>
        <time>2020-07-12T11:49:47Z</time>
      </trkpt>
      <trkpt lat="45.31033" lon="6.14458">
        <ele>2191.88</ele>
        <time>2020-07-12T11:49:20Z</time>
      </trkpt>
      <trkpt lat="45.31037" lon="6.1447">
        <ele>2194.89</ele>
        <time>2020-07-12T11:49:03Z</time>
      </trkpt>
      <trkpt lat="45.31041" lon="6.14482">
        <ele>2199.08</ele>
        <time>2020-07-12T11:48:47Z</time>
      </trkpt>
      <trkpt lat="45.31043" lon="6.14495">
        <ele>2203.08</ele>
        <time>2020-07-12T11:48:34Z</time>
      </trkpt>
      <trkpt lat="45.31048" lon="6.14506">
        <ele>2204.89</ele>
        <time>2020-07-12T11:48:19Z</time>
      </trkpt>
      <trkpt lat="45.31052" lon="6.14519">
        <ele>2207.88</ele>
        <time>2020-07-12T11:48:07Z</time>
      </trkpt>
      <trkpt lat="45.31057" lon="6.14529">
        <ele>2211.88</ele>
        <time>2020-07-12T11:47:52Z</time>
      </trkpt>
      <trkpt lat="45.31063" lon="6.1454">
        <ele>2215.92</ele>
        <time>2020-07-12T11:47:33Z</time>
      </trkpt>
      <trkpt lat="45.31066" lon="6.14553">
        <ele>2222.89</ele>
        <time>2020-07-12T11:47:07Z</time>
      </trkpt>
      <trkpt lat="45.3107" lon="6.14565">
        <ele>2228.87</ele>
        <time>2020-07-12T11:46:33Z</time>
      </trkpt>
      <trkpt lat="45.31079" lon="6.1456">
        <ele>2227.87</ele>
        <time>2020-07-12T11:46:14Z</time>
      </trkpt>
      <trkpt lat="45.31087" lon="6.14567">
        <ele>2227.88</ele>
        <time>2020-07-12T11:45:55Z</time>
      </trkpt>
      <trkpt lat="45.31095" lon="6.14558">
        <ele>2233.84</ele>
        <time>2020-07-12T11:45:31Z</time>
      </trkpt>
      <trkpt lat="45.31103" lon="6.14553">
        <ele>2235.68</ele>
        <time>2020-07-12T11:45:17Z</time>
      </trkpt>
      <trkpt lat="45.31112" lon="6.14556">
        <ele>2235.84</ele>
        <time>2020-07-12T11:44:55Z</time>
      </trkpt>
      <trkpt lat="45.31121" lon="6.14559">
        <ele>2235.09</ele>
        <time>2020-07-12T11:44:45Z</time>
      </trkpt>
      <trkpt lat="45.31129" lon="6.14566">
        <ele>2239.65</ele>
        <time>2020-07-12T11:44:34Z</time>
      </trkpt>
      <trkpt lat="45.31136" lon="6.14576">
        <ele>2240.88</ele>
        <time>2020-07-12T11:44:22Z</time>
      </trkpt>
      <trkpt lat="45.31144" lon="6.14583">
        <ele>2245.69</ele>
        <time>2020-07-12T11:44:08Z</time>
      </trkpt>
      <trkpt lat="45.31149" lon="6.14594">
        <ele>2245.88</ele>
        <time>2020-07-12T11:43:59Z</time>
      </trkpt>
      <trkpt lat="45.31152" lon="6.14607">
        <ele>2243.88</ele>
        <time>2020-07-12T11:43:47Z</time>
      </trkpt>
      <trkpt lat="45.31154" lon="6.1462">
        <ele>2244.88</ele>
        <time>2020-07-12T11:43:39Z</time>
      </trkpt>
      <trkpt lat="45.31157" lon="6.14632">
        <ele>2243.88</ele>
        <time>2020-07-12T11:43:27Z</time>
      </trkpt>
      <trkpt lat="45.31161" lon="6.14645">
        <ele>2244.08</ele>
        <time>2020-07-12T11:43:17Z</time>
      </trkpt>
      <trkpt lat="45.31167" lon="6.14655">
        <ele>2248.17</ele>
        <time>2020-07-12T11:43:10Z</time>
      </trkpt>
      <trkpt lat="45.31174" lon="6.14664">
        <ele>2254.88</ele>
        <time>2020-07-12T11:42:47Z</time>
      </trkpt>
      <trkpt lat="45.31182" lon="6.1467">
        <ele>2256.09</ele>
        <time>2020-07-12T11:42:40Z</time>
      </trkpt>
      <trkpt lat="45.31189" lon="6.14678">
        <ele>2264.08</ele>
        <time>2020-07-12T11:42:21Z</time>
      </trkpt>
      <trkpt lat="45.31192" lon="6.14691">
        <ele>2267.92</ele>
        <time>2020-07-12T11:42:08Z</time>
      </trkpt>
      <trkpt lat="45.31196" lon="6.14703">
        <ele>2268.92</ele>
        <time>2020-07-12T11:41:59Z</time>
      </trkpt>
      <trkpt lat="45.31201" lon="6.14715">
        <ele>2268.92</ele>
        <time>2020-07-12T11:41:50Z</time>
      </trkpt>
      <trkpt lat="45.31202" lon="6.14728">
        <ele>2271.89</ele>
        <time>2020-07-12T11:41:34Z</time>
      </trkpt>
      <trkpt lat="45.31207" lon="6.1474">
        <ele>2274.92</ele>
        <time>2020-07-12T11:41:24Z</time>
      </trkpt>
      <trkpt lat="45.3121" lon="6.14753">
        <ele>2280.28</ele>
        <time>2020-07-12T11:41:14Z</time>
      </trkpt>
      <trkpt lat="45.31215" lon="6.14766">
        <ele>2286.88</ele>
        <time>2020-07-12T11:40:52Z</time>
      </trkpt>
      <trkpt lat="45.31217" lon="6.14779">
        <ele>2292.08</ele>
        <time>2020-07-12T11:40:26Z</time>
      </trkpt>
      <trkpt lat="45.31218" lon="6.14792">
        <ele>2294.73</ele>
        <time>2020-07-12T11:40:11Z</time>
      </trkpt>
      <trkpt lat="45.31223" lon="6.14803">
        <ele>2295.84</ele>
        <time>2020-07-12T11:39:58Z</time>
      </trkpt>
      <trkpt lat="45.31228" lon="6.14814">
        <ele>2292.92</ele>
        <time>2020-07-12T11:39:45Z</time>
      </trkpt>
      <trkpt lat="45.31229" lon="6.14827">
        <ele>2296.88</ele>
        <time>2020-07-12T11:39:33Z</time>
      </trkpt>
      <trkpt lat="45.31228" lon="6.1484">
        <ele>2298.93</ele>
        <time>2020-07-12T11:39:22Z</time>
      </trkpt>
      <trkpt lat="45.31222" lon="6.14851">
        <ele>2300.84</ele>
        <time>2020-07-12T11:37:51Z</time>
      </trkpt>
      <trkpt lat="45.31222" lon="6.14865">
        <ele>2299.84</ele>
        <time>2020-07-12T11:37:42Z</time>
      </trkpt>
      <trkpt lat="45.31222" lon="6.14878">
        <ele>2304.93</ele>
        <time>2020-07-12T11:37:33Z</time>
      </trkpt>
      <trkpt lat="45.3122" lon="6.14891">
        <ele>2307.41</ele>
        <time>2020-07-12T11:37:25Z</time>
      </trkpt>
      <trkpt lat="45.31219" lon="6.14904">
        <ele>2302.96</ele>
        <time>2020-07-12T11:37:08Z</time>
      </trkpt>
      <trkpt lat="45.31219" lon="6.14918">
        <ele>2306.89</ele>
        <time>2020-07-12T11:36:58Z</time>
      </trkpt>
      <trkpt lat="45.31216" lon="6.14931">
        <ele>2311.09</ele>
        <time>2020-07-12T11:36:47Z</time>
      </trkpt>
      <trkpt lat="45.31214" lon="6.14945">
        <ele>2316.16</ele>
        <time>2020-07-12T11:36:39Z</time>
      </trkpt>
      <trkpt lat="45.31211" lon="6.14957">
        <ele>2320.89</ele>
        <time>2020-07-12T11:36:32Z</time>
      </trkpt>
      <trkpt lat="45.31208" lon="6.14971">
        <ele>2323.13</ele>
        <time>2020-07-12T11:36:24Z</time>
      </trkpt>
      <trkpt lat="45.31215" lon="6.14978">
        <ele>2328.76</ele>
        <time>2020-07-12T11:36:06Z</time>
      </trkpt>
      <trkpt lat="45.31224" lon="6.14979">
        <ele>2330.48</ele>
        <time>2020-07-12T11:35:38Z</time>
      </trkpt>
      <trkpt lat="45.31235" lon="6.14982">
        <ele>2331.71</ele>
        <time>2020-07-12T11:35:27Z</time>
      </trkpt>
      <trkpt lat="45.31243" lon="6.14987">
        <ele>2330.93</ele>
        <time>2020-07-12T11:34:56Z</time>
      </trkpt>
      <trkpt lat="45.3125" lon="6.14996">
        <ele>2333.72</ele>
        <time>2020-07-12T11:34:40Z</time>
      </trkpt>
      <trkpt lat="45.31259" lon="6.15001">
        <ele>2339.08</ele>
        <time>2020-07-12T11:34:24Z</time>
      </trkpt>
      <trkpt lat="45.31268" lon="6.15005">
        <ele>2339.87</ele>
        <time>2020-07-12T11:34:10Z</time>
      </trkpt>
      <trkpt lat="45.31278" lon="6.15007">
        <ele>2339.88</ele>
        <time>2020-07-12T11:33:59Z</time>
      </trkpt>
      <trkpt lat="45.31283" lon="6.15018">
        <ele>2346.08</ele>
        <time>2020-07-12T11:33:41Z</time>
      </trkpt>
      <trkpt lat="45.31289" lon="6.15028">
        <ele>2350.07</ele>
        <time>2020-07-12T11:33:29Z</time>
      </trkpt>
      <trkpt lat="45.31297" lon="6.15035">
        <ele>2355.68</ele>
        <time>2020-07-12T11:33:07Z</time>
      </trkpt>
      <trkpt lat="45.31306" lon="6.15039">
        <ele>2358.88</ele>
        <time>2020-07-12T11:32:19Z</time>
      </trkpt>
      <trkpt lat="45.31313" lon="6.15048">
        <ele>2362.84</ele>
        <time>2020-07-12T11:32:00Z</time>
      </trkpt>
      <trkpt lat="45.31315" lon="6.15061">
        <ele>2366.88</ele>
        <time>2020-07-12T11:31:48Z</time>
      </trkpt>
      <trkpt lat="45.31324" lon="6.15062">
        <ele>2371.69</ele>
        <time>2020-07-12T11:31:34Z</time>
      </trkpt>
      <trkpt lat="45.31333" lon="6.15064">
        <ele>2373.93</ele>
        <time>2020-07-12T11:31:22Z</time>
      </trkpt>
      <trkpt lat="45.31342" lon="6.15068">
        <ele>2378.91</ele>
        <time>2020-07-12T11:31:11Z</time>
      </trkpt>
      <trkpt lat="45.31344" lon="6.15081">
        <ele>2382.88</ele>
        <time>2020-07-12T11:30:59Z</time>
      </trkpt>
      <trkpt lat="45.3135" lon="6.15091">
        <ele>2389.08</ele>
        <time>2020-07-12T11:30:37Z</time>
      </trkpt>
      <trkpt lat="45.31359" lon="6.15094">
        <ele>2394.89</ele>
        <time>2020-07-12T11:30:24Z</time>
      </trkpt>
      <trkpt lat="45.31366" lon="6.15104">
        <ele>2399.88</ele>
        <time>2020-07-12T11:30:07Z</time>
      </trkpt>
      <trkpt lat="45.31367" lon="6.15117">
        <ele>2402.72</ele>
        <time>2020-07-12T11:29:57Z</time>
      </trkpt>
      <trkpt lat="45.31371" lon="6.15128">
        <ele>2405.88</ele>
        <time>2020-07-12T11:29:47Z</time>
      </trkpt>
      <trkpt lat="45.31376" lon="6.1514">
        <ele>2407.88</ele>
        <time>2020-07-12T11:29:31Z</time>
      </trkpt>
      <trkpt lat="45.31377" lon="6.15154">
        <ele>2409.93</ele>
        <time>2020-07-12T11:29:14Z</time>
      </trkpt>
      <trkpt lat="45.31378" lon="6.15167">
        <ele>2411.91</ele>
        <time>2020-07-12T11:29:04Z</time>
      </trkpt>
      <trkpt lat="45.31388" lon="6.1517">
        <ele>2415.89</ele>
        <time>2020-07-12T11:28:51Z</time>
      </trkpt>
      <trkpt lat="45.3139" lon="6.15183">
        <ele>2417.88</ele>
        <time>2020-07-12T11:28:25Z</time>
      </trkpt>
      <trkpt lat="45.31389" lon="6.15196">
        <ele>2417.69</ele>
        <time>2020-07-12T11:27:57Z</time>
      </trkpt>
      <trkpt lat="45.31383" lon="6.15206">
        <ele>2419.7</ele>
        <time>2020-07-12T11:27:48Z</time>
      </trkpt>
      <trkpt lat="45.31389" lon="6.15215">
        <ele>2425.12</ele>
        <time>2020-07-12T11:27:41Z</time>
      </trkpt>
      <trkpt lat="45.31395" lon="6.15226">
        <ele>2431.12</ele>
        <time>2020-07-12T11:27:34Z</time>
      </trkpt>
      <trkpt lat="45.31396" lon="6.1524">
        <ele>2430.89</ele>
        <time>2020-07-12T11:26:06Z</time>
      </trkpt>
      <trkpt lat="45.31399" lon="6.15253">
        <ele>2434.08</ele>
        <time>2020-07-12T11:25:58Z</time>
      </trkpt>
      <trkpt lat="45.31401" lon="6.15266">
        <ele>2437.12</ele>
        <time>2020-07-12T11:25:44Z</time>
      </trkpt>
      <trkpt lat="45.31401" lon="6.1528">
        <ele>2444.12</ele>
        <time>2020-07-12T11:25:28Z</time>
      </trkpt>
      <trkpt lat="45.31401" lon="6.15293">
        <ele>2448.09</ele>
        <time>2020-07-12T11:25:10Z</time>
      </trkpt>
      <trkpt lat="45.31399" lon="6.15306">
        <ele>2451.96</ele>
        <time>2020-07-12T11:25:01Z</time>
      </trkpt>
      <trkpt lat="45.31397" lon="6.15319">
        <ele>2458.08</ele>
        <time>2020-07-12T11:24:46Z</time>
      </trkpt>
      <trkpt lat="45.31399" lon="6.15332">
        <ele>2459.96</ele>
        <time>2020-07-12T11:24:34Z</time>
      </trkpt>
      <trkpt lat="45.31407" lon="6.15339">
        <ele>2462.88</ele>
        <time>2020-07-12T11:24:24Z</time>
      </trkpt>
      <trkpt lat="45.31415" lon="6.15347">
        <ele>2467.89</ele>
        <time>2020-07-12T11:23:35Z</time>
      </trkpt>
      <trkpt lat="45.31424" lon="6.15342">
        <ele>2469.68</ele>
        <time>2020-07-12T11:23:02Z</time>
      </trkpt>
      <trkpt lat="45.31432" lon="6.15337">
        <ele>2475.08</ele>
        <time>2020-07-12T11:22:37Z</time>
      </trkpt>
      <trkpt lat="45.31441" lon="6.15338">
        <ele>2489.08</ele>
        <time>2020-07-12T11:22:01Z</time>
      </trkpt>
      <trkpt lat="45.31443" lon="6.15351">
        <ele>2502.07</ele>
        <time>2020-07-12T11:21:07Z</time>
      </trkpt>
      <trkpt lat="45.31446" lon="6.15364">
        <ele>2487.51</ele>
        <time>2020-07-12T11:18:47Z</time>
      </trkpt>
      <trkpt lat="45.31462" lon="6.15627">
        <ele>2396.88</ele>
        <time>2020-07-12T11:06:27Z</time>
      </trkpt>
      <trkpt lat="45.31467" lon="6.15638">
        <ele>2394.88</ele>
        <time>2020-07-12T11:06:02Z</time>
      </trkpt>
      <trkpt lat="45.31467" lon="6.15651">
        <ele>2393.05</ele>
        <time>2020-07-12T11:05:43Z</time>
      </trkpt>
      <trkpt lat="45.31472" lon="6.15662">
        <ele>2390.06</ele>
        <time>2020-07-12T11:05:31Z</time>
      </trkpt>
      <trkpt lat="45.31476" lon="6.15673">
        <ele>2383.68</ele>
        <time>2020-07-12T11:05:16Z</time>
      </trkpt>
      <trkpt lat="45.31479" lon="6.15686">
        <ele>2380.88</ele>
        <time>2020-07-12T11:04:57Z</time>
      </trkpt>
      <trkpt lat="45.31479" lon="6.15699">
        <ele>2377.88</ele>
        <time>2020-07-12T11:04:35Z</time>
      </trkpt>
      <trkpt lat="45.31482" lon="6.15712">
        <ele>2374.04</ele>
        <time>2020-07-12T11:04:13Z</time>
      </trkpt>
      <trkpt lat="45.31484" lon="6.15726">
        <ele>2365.84</ele>
        <time>2020-07-12T11:03:40Z</time>
      </trkpt>
      <trkpt lat="45.31486" lon="6.15738">
        <ele>2363.85</ele>
        <time>2020-07-12T11:03:27Z</time>
      </trkpt>
      <trkpt lat="45.31491" lon="6.1575">
        <ele>2347.89</ele>
        <time>2020-07-12T11:03:04Z</time>
      </trkpt>
      <trkpt lat="45.31491" lon="6.15763">
        <ele>2350.03</ele>
        <time>2020-07-12T11:02:47Z</time>
      </trkpt>
      <trkpt lat="45.31494" lon="6.15775">
        <ele>2347.67</ele>
        <time>2020-07-12T11:02:18Z</time>
      </trkpt>
      <trkpt lat="45.31494" lon="6.15788">
        <ele>2342.87</ele>
        <time>2020-07-12T11:02:00Z</time>
      </trkpt>
      <trkpt lat="45.315" lon="6.15798">
        <ele>2342.08</ele>
        <time>2020-07-12T11:01:46Z</time>
      </trkpt>
      <trkpt lat="45.31505" lon="6.1581">
        <ele>2344.55</ele>
        <time>2020-07-12T11:01:36Z</time>
      </trkpt>
      <trkpt lat="45.31513" lon="6.15816">
        <ele>2343.68</ele>
        <time>2020-07-12T11:01:26Z</time>
      </trkpt>
      <trkpt lat="45.3152" lon="6.15823">
        <ele>2339.84</ele>
        <time>2020-07-12T11:00:47Z</time>
      </trkpt>
      <trkpt lat="45.31529" lon="6.15827">
        <ele>2336.87</ele>
        <time>2020-07-12T11:00:21Z</time>
      </trkpt>
      <trkpt lat="45.31538" lon="6.1583">
        <ele>2328.88</ele>
        <time>2020-07-12T10:59:44Z</time>
      </trkpt>
      <trkpt lat="45.31547" lon="6.15832">
        <ele>2320.89</ele>
        <time>2020-07-12T10:59:08Z</time>
      </trkpt>
      <trkpt lat="45.31555" lon="6.15838">
        <ele>2318.88</ele>
        <time>2020-07-12T10:58:37Z</time>
      </trkpt>
      <trkpt lat="45.31564" lon="6.15841">
        <ele>2314.84</ele>
        <time>2020-07-12T10:58:00Z</time>
      </trkpt>
      <trkpt lat="45.31573" lon="6.15841">
        <ele>2308.92</ele>
        <time>2020-07-12T10:57:40Z</time>
      </trkpt>
      <trkpt lat="45.31582" lon="6.15844">
        <ele>2308.84</ele>
        <time>2020-07-12T10:57:13Z</time>
      </trkpt>
      <trkpt lat="45.31591" lon="6.15847">
        <ele>2306.84</ele>
        <time>2020-07-12T10:56:45Z</time>
      </trkpt>
      <trkpt lat="45.316" lon="6.15845">
        <ele>2301.68</ele>
        <time>2020-07-12T10:56:12Z</time>
      </trkpt>
      <trkpt lat="45.31609" lon="6.15841">
        <ele>2292.71</ele>
        <time>2020-07-12T10:55:27Z</time>
      </trkpt>
      <trkpt lat="45.31618" lon="6.1584">
        <ele>2286.84</ele>
        <time>2020-07-12T10:54:54Z</time>
      </trkpt>
      <trkpt lat="45.31628" lon="6.15838">
        <ele>2282.87</ele>
        <time>2020-07-12T10:54:25Z</time>
      </trkpt>
      <trkpt lat="45.31637" lon="6.15836">
        <ele>2275.88</ele>
        <time>2020-07-12T10:53:52Z</time>
      </trkpt>
      <trkpt lat="45.31646" lon="6.15833">
        <ele>2272.68</ele>
        <time>2020-07-12T10:53:12Z</time>
      </trkpt>
      <trkpt lat="45.31655" lon="6.15834">
        <ele>2268.08</ele>
        <time>2020-07-12T10:52:36Z</time>
      </trkpt>
      <trkpt lat="45.31664" lon="6.15836">
        <ele>2263.86</ele>
        <time>2020-07-12T10:51:48Z</time>
      </trkpt>
      <trkpt lat="45.31673" lon="6.1584">
        <ele>2258.68</ele>
        <time>2020-07-12T10:51:08Z</time>
      </trkpt>
      <trkpt lat="45.31683" lon="6.1584">
        <ele>2254.88</ele>
        <time>2020-07-12T10:50:32Z</time>
      </trkpt>
      <trkpt lat="45.31692" lon="6.15835">
        <ele>2247.87</ele>
        <time>2020-07-12T10:49:52Z</time>
      </trkpt>
      <trkpt lat="45.31701" lon="6.15833">
        <ele>2240.04</ele>
        <time>2020-07-12T10:49:11Z</time>
      </trkpt>
      <trkpt lat="45.31709" lon="6.15828">
        <ele>2232.88</ele>
        <time>2020-07-12T10:48:35Z</time>
      </trkpt>
      <trkpt lat="45.31716" lon="6.15819">
        <ele>2228.68</ele>
        <time>2020-07-12T10:48:10Z</time>
      </trkpt>
      <trkpt lat="45.31722" lon="6.15809">
        <ele>2217.88</ele>
        <time>2020-07-12T10:47:22Z</time>
      </trkpt>
      <trkpt lat="45.31731" lon="6.15808">
        <ele>2212.84</ele>
        <time>2020-07-12T10:46:49Z</time>
      </trkpt>
      <trkpt lat="45.3174" lon="6.15802">
        <ele>2207.68</ele>
        <time>2020-07-12T10:46:17Z</time>
      </trkpt>
      <trkpt lat="45.31749" lon="6.15803">
        <ele>2205.88</ele>
        <time>2020-07-12T10:45:51Z</time>
      </trkpt>
      <trkpt lat="45.31758" lon="6.15805">
        <ele>2202.64</ele>
        <time>2020-07-12T10:45:30Z</time>
      </trkpt>
      <trkpt lat="45.31767" lon="6.158">
        <ele>2191.12</ele>
        <time>2020-07-12T10:44:04Z</time>
      </trkpt>
      <trkpt lat="45.31776" lon="6.15801">
        <ele>2188.68</ele>
        <time>2020-07-12T10:43:42Z</time>
      </trkpt>
      <trkpt lat="45.31785" lon="6.15797">
        <ele>2185.87</ele>
        <time>2020-07-12T10:43:13Z</time>
      </trkpt>
      <trkpt lat="45.31795" lon="6.15794">
        <ele>2180.68</ele>
        <time>2020-07-12T10:42:45Z</time>
      </trkpt>
      <trkpt lat="45.31804" lon="6.15795">
        <ele>2173.88</ele>
        <time>2020-07-12T10:42:08Z</time>
      </trkpt>
      <trkpt lat="45.31813" lon="6.15797">
        <ele>2170.88</ele>
        <time>2020-07-12T10:41:48Z</time>
      </trkpt>
      <trkpt lat="45.31823" lon="6.15794">
        <ele>2164.68</ele>
        <time>2020-07-12T10:41:17Z</time>
      </trkpt>
      <trkpt lat="45.31832" lon="6.15794">
        <ele>2156.88</ele>
        <time>2020-07-12T10:40:46Z</time>
      </trkpt>
      <trkpt lat="45.31841" lon="6.15792">
        <ele>2151.67</ele>
        <time>2020-07-12T10:40:21Z</time>
      </trkpt>
      <trkpt lat="45.31849" lon="6.15785">
        <ele>2145.68</ele>
        <time>2020-07-12T10:39:59Z</time>
      </trkpt>
      <trkpt lat="45.31858" lon="6.15782">
        <ele>2144.88</ele>
        <time>2020-07-12T10:39:35Z</time>
      </trkpt>
      <trkpt lat="45.31866" lon="6.15777">
        <ele>2144.68</ele>
        <time>2020-07-12T10:39:17Z</time>
      </trkpt>
      <trkpt lat="45.31876" lon="6.15778">
        <ele>2141.68</ele>
        <time>2020-07-12T10:39:01Z</time>
      </trkpt>
      <trkpt lat="45.31885" lon="6.15782">
        <ele>2136.83</ele>
        <time>2020-07-12T10:38:45Z</time>
      </trkpt>
      <trkpt lat="45.31894" lon="6.15778">
        <ele>2132.68</ele>
        <time>2020-07-12T10:38:29Z</time>
      </trkpt>
      <trkpt lat="45.31903" lon="6.15781">
        <ele>2126.68</ele>
        <time>2020-07-12T10:38:01Z</time>
      </trkpt>
      <trkpt lat="45.31912" lon="6.15776">
        <ele>2121.88</ele>
        <time>2020-07-12T10:37:37Z</time>
      </trkpt>
      <trkpt lat="45.31922" lon="6.15775">
        <ele>2120.88</ele>
        <time>2020-07-12T10:37:22Z</time>
      </trkpt>
      <trkpt lat="45.31931" lon="6.15773">
        <ele>2118.88</ele>
        <time>2020-07-12T10:37:07Z</time>
      </trkpt>
      <trkpt lat="45.31938" lon="6.15764">
        <ele>2115.88</ele>
        <time>2020-07-12T10:36:52Z</time>
      </trkpt>
      <trkpt lat="45.31943" lon="6.15752">
        <ele>2113.88</ele>
        <time>2020-07-12T10:36:29Z</time>
      </trkpt>
      <trkpt lat="45.31951" lon="6.15744">
        <ele>2112.88</ele>
        <time>2020-07-12T10:36:07Z</time>
      </trkpt>
      <trkpt lat="45.31956" lon="6.15734">
        <ele>2096.88</ele>
        <time>2020-07-12T10:35:41Z</time>
      </trkpt>
      <trkpt lat="45.32037" lon="6.15722">
        <ele>2088.84</ele>
        <time>2020-07-12T10:34:16Z</time>
      </trkpt>
      <trkpt lat="45.32046" lon="6.15722">
        <ele>2085.88</ele>
        <time>2020-07-12T10:34:08Z</time>
      </trkpt>
      <trkpt lat="45.32055" lon="6.15724">
        <ele>2085.84</ele>
        <time>2020-07-12T10:34:01Z</time>
      </trkpt>
      <trkpt lat="45.32066" lon="6.15724">
        <ele>2084.84</ele>
        <time>2020-07-12T10:33:54Z</time>
      </trkpt>
      <trkpt lat="45.32075" lon="6.1572">
        <ele>2083.08</ele>
        <time>2020-07-12T10:33:48Z</time>
      </trkpt>
      <trkpt lat="45.32083" lon="6.15715">
        <ele>2083.87</ele>
        <time>2020-07-12T10:33:41Z</time>
      </trkpt>
      <trkpt lat="45.32093" lon="6.15715">
        <ele>2083.84</ele>
        <time>2020-07-12T10:33:31Z</time>
      </trkpt>
      <trkpt lat="45.32103" lon="6.15718">
        <ele>2080.84</ele>
        <time>2020-07-12T10:33:18Z</time>
      </trkpt>
      <trkpt lat="45.32112" lon="6.15719">
        <ele>2078.88</ele>
        <time>2020-07-12T10:33:11Z</time>
      </trkpt>
      <trkpt lat="45.32121" lon="6.15723">
        <ele>2081.12</ele>
        <time>2020-07-12T10:33:03Z</time>
      </trkpt>
      <trkpt lat="45.32132" lon="6.15725">
        <ele>2081.88</ele>
        <time>2020-07-12T10:32:55Z</time>
      </trkpt>
      <trkpt lat="45.32139" lon="6.15733">
        <ele>2081.92</ele>
        <time>2020-07-12T10:32:47Z</time>
      </trkpt>
      <trkpt lat="45.32147" lon="6.1574">
        <ele>2081.87</ele>
        <time>2020-07-12T10:32:42Z</time>
      </trkpt>
      <trkpt lat="45.32156" lon="6.15747">
        <ele>2081.63</ele>
        <time>2020-07-12T10:32:34Z</time>
      </trkpt>
      <trkpt lat="45.32165" lon="6.1575">
        <ele>2078.2</ele>
        <time>2020-07-12T10:32:26Z</time>
      </trkpt>
      <trkpt lat="45.32175" lon="6.15751">
        <ele>2082.13</ele>
        <time>2020-07-12T10:32:16Z</time>
      </trkpt>
      <trkpt lat="45.32179" lon="6.15763">
        <ele>2082.63</ele>
        <time>2020-07-12T10:32:05Z</time>
      </trkpt>
      <trkpt lat="45.32189" lon="6.15766">
        <ele>2080.87</ele>
        <time>2020-07-12T10:31:50Z</time>
      </trkpt>
      <trkpt lat="45.32197" lon="6.15774">
        <ele>2077.84</ele>
        <time>2020-07-12T10:31:34Z</time>
      </trkpt>
      <trkpt lat="45.32206" lon="6.15777">
        <ele>2074.07</ele>
        <time>2020-07-12T10:31:18Z</time>
      </trkpt>
      <trkpt lat="45.32216" lon="6.15775">
        <ele>2073.69</ele>
        <time>2020-07-12T10:31:05Z</time>
      </trkpt>
      <trkpt lat="45.32225" lon="6.15777">
        <ele>2069.87</ele>
        <time>2020-07-12T10:30:46Z</time>
      </trkpt>
      <trkpt lat="45.32233" lon="6.15784">
        <ele>2069.72</ele>
        <time>2020-07-12T10:30:32Z</time>
      </trkpt>
      <trkpt lat="45.32243" lon="6.15783">
        <ele>2067.88</ele>
        <time>2020-07-12T10:30:21Z</time>
      </trkpt>
      <trkpt lat="45.32251" lon="6.15776">
        <ele>2067.12</ele>
        <time>2020-07-12T10:30:05Z</time>
      </trkpt>
      <trkpt lat="45.32261" lon="6.15773">
        <ele>2065.88</ele>
        <time>2020-07-12T10:29:52Z</time>
      </trkpt>
      <trkpt lat="45.3227" lon="6.15777">
        <ele>2065.07</ele>
        <time>2020-07-12T10:29:36Z</time>
      </trkpt>
      <trkpt lat="45.32278" lon="6.15786">
        <ele>2058.88</ele>
        <time>2020-07-12T10:29:16Z</time>
      </trkpt>
      <trkpt lat="45.32287" lon="6.15788">
        <ele>2056.87</ele>
        <time>2020-07-12T10:28:56Z</time>
      </trkpt>
      <trkpt lat="45.32295" lon="6.15793">
        <ele>2056.64</ele>
        <time>2020-07-12T10:28:37Z</time>
      </trkpt>
      <trkpt lat="45.32304" lon="6.158">
        <ele>2051.72</ele>
        <time>2020-07-12T10:28:19Z</time>
      </trkpt>
      <trkpt lat="45.32313" lon="6.158">
        <ele>2051.88</ele>
        <time>2020-07-12T10:28:04Z</time>
      </trkpt>
      <trkpt lat="45.32322" lon="6.15806">
        <ele>2053.85</ele>
        <time>2020-07-12T10:27:51Z</time>
      </trkpt>
      <trkpt lat="45.32332" lon="6.15807">
        <ele>2053.07</ele>
        <time>2020-07-12T10:27:38Z</time>
      </trkpt>
      <trkpt lat="45.32341" lon="6.1581">
        <ele>2051.07</ele>
        <time>2020-07-12T10:27:28Z</time>
      </trkpt>
      <trkpt lat="45.32347" lon="6.1582">
        <ele>2049.88</ele>
        <time>2020-07-12T10:25:05Z</time>
      </trkpt>
      <trkpt lat="45.32341" lon="6.15812">
        <ele>2048.89</ele>
        <time>2020-07-12T10:24:56Z</time>
      </trkpt>
      <trkpt lat="45.32332" lon="6.15807">
        <ele>2046.88</ele>
        <time>2020-07-12T10:24:47Z</time>
      </trkpt>
      <trkpt lat="45.32323" lon="6.15805">
        <ele>2046.72</ele>
        <time>2020-07-12T10:24:34Z</time>
      </trkpt>
      <trkpt lat="45.32314" lon="6.15806">
        <ele>2047.08</ele>
        <time>2020-07-12T10:24:20Z</time>
      </trkpt>
      <trkpt lat="45.32305" lon="6.15807">
        <ele>2047.84</ele>
        <time>2020-07-12T10:24:09Z</time>
      </trkpt>
      <trkpt lat="45.32296" lon="6.15805">
        <ele>2043.92</ele>
        <time>2020-07-12T10:23:59Z</time>
      </trkpt>
      <trkpt lat="45.32287" lon="6.15811">
        <ele>2053.48</ele>
        <time>2020-07-12T10:23:34Z</time>
      </trkpt>
      <trkpt lat="45.32278" lon="6.15808">
        <ele>2052.12</ele>
        <time>2020-07-12T10:23:25Z</time>
      </trkpt>
      <trkpt lat="45.32267" lon="6.15803">
        <ele>2052.88</ele>
        <time>2020-07-12T10:22:59Z</time>
      </trkpt>
      <trkpt lat="45.32257" lon="6.15806">
        <ele>2053.88</ele>
        <time>2020-07-12T10:22:42Z</time>
      </trkpt>
      <trkpt lat="45.32248" lon="6.15802">
        <ele>2059.89</ele>
        <time>2020-07-12T10:22:19Z</time>
      </trkpt>
      <trkpt lat="45.32242" lon="6.15793">
        <ele>2066.08</ele>
        <time>2020-07-12T10:21:57Z</time>
      </trkpt>
      <trkpt lat="45.32237" lon="6.15782">
        <ele>2069.88</ele>
        <time>2020-07-12T10:21:44Z</time>
      </trkpt>
      <trkpt lat="45.32235" lon="6.15769">
        <ele>2071.92</ele>
        <time>2020-07-12T10:21:31Z</time>
      </trkpt>
      <trkpt lat="45.32228" lon="6.1576">
        <ele>2075.09</ele>
        <time>2020-07-12T10:21:18Z</time>
      </trkpt>
      <trkpt lat="45.3222" lon="6.15751">
        <ele>2078.92</ele>
        <time>2020-07-12T10:21:05Z</time>
      </trkpt>
      <trkpt lat="45.32212" lon="6.15744">
        <ele>2081.88</ele>
        <time>2020-07-12T10:20:54Z</time>
      </trkpt>
      <trkpt lat="45.32202" lon="6.15743">
        <ele>2081.88</ele>
        <time>2020-07-12T10:20:45Z</time>
      </trkpt>
      <trkpt lat="45.32193" lon="6.15736">
        <ele>2082.87</ele>
        <time>2020-07-12T10:20:34Z</time>
      </trkpt>
      <trkpt lat="45.32185" lon="6.15731">
        <ele>2080.09</ele>
        <time>2020-07-12T10:20:27Z</time>
      </trkpt>
      <trkpt lat="45.32175" lon="6.15728">
        <ele>2080.88</ele>
        <time>2020-07-12T10:20:18Z</time>
      </trkpt>
      <trkpt lat="45.32166" lon="6.15729">
        <ele>2080.72</ele>
        <time>2020-07-12T10:20:11Z</time>
      </trkpt>
      <trkpt lat="45.32156" lon="6.15732">
        <ele>2080.68</ele>
        <time>2020-07-12T10:20:01Z</time>
      </trkpt>
      <trkpt lat="45.32146" lon="6.15728">
        <ele>2078.88</ele>
        <time>2020-07-12T10:19:56Z</time>
      </trkpt>
      <trkpt lat="45.32137" lon="6.15724">
        <ele>2078.8</ele>
        <time>2020-07-12T10:19:51Z</time>
      </trkpt>
      <trkpt lat="45.32127" lon="6.15724">
        <ele>2076.88</ele>
        <time>2020-07-12T10:19:47Z</time>
      </trkpt>
      <trkpt lat="45.32118" lon="6.1572">
        <ele>2075.71</ele>
        <time>2020-07-12T10:19:42Z</time>
      </trkpt>
      <trkpt lat="45.32109" lon="6.15719">
        <ele>2075.91</ele>
        <time>2020-07-12T10:19:36Z</time>
      </trkpt>
      <trkpt lat="45.32099" lon="6.15717">
        <ele>2075.92</ele>
        <time>2020-07-12T10:19:29Z</time>
      </trkpt>
      <trkpt lat="45.3209" lon="6.15717">
        <ele>2073.85</ele>
        <time>2020-07-12T10:19:19Z</time>
      </trkpt>
      <trkpt lat="45.32081" lon="6.1572">
        <ele>2075.12</ele>
        <time>2020-07-12T10:19:13Z</time>
      </trkpt>
      <trkpt lat="45.32071" lon="6.15722">
        <ele>2075.67</ele>
        <time>2020-07-12T10:19:06Z</time>
      </trkpt>
      <trkpt lat="45.32061" lon="6.15723">
        <ele>2073.02</ele>
        <time>2020-07-12T10:19:01Z</time>
      </trkpt>
      <trkpt lat="45.32053" lon="6.15732">
        <ele>2084.22</ele>
        <time>2020-07-12T10:18:44Z</time>
      </trkpt>
      <trkpt lat="45.32072" lon="6.15715">
        <ele>2088.36</ele>
        <time>2020-07-12T10:18:42Z</time>
      </trkpt>
      <trkpt lat="45.32063" lon="6.15724">
        <ele>2082.28</ele>
        <time>2020-07-12T10:18:41Z</time>
      </trkpt>
      <trkpt lat="45.32054" lon="6.15728">
        <ele>2071.9</ele>
        <time>2020-07-12T10:18:40Z</time>
      </trkpt>
      <trkpt lat="45.32291" lon="6.15968">
        <ele>2036.87</ele>
        <time>2020-07-12T10:05:55Z</time>
      </trkpt>
      <trkpt lat="45.32299" lon="6.15973">
        <ele>2043.64</ele>
        <time>2020-07-12T10:05:34Z</time>
      </trkpt>
      <trkpt lat="45.32307" lon="6.15981">
        <ele>2046.08</ele>
        <time>2020-07-12T10:05:22Z</time>
      </trkpt>
      <trkpt lat="45.32316" lon="6.15976">
        <ele>2048.88</ele>
        <time>2020-07-12T10:03:53Z</time>
      </trkpt>
      <trkpt lat="45.32323" lon="6.15984">
        <ele>2043.92</ele>
        <time>2020-07-12T10:03:00Z</time>
      </trkpt>
      <trkpt lat="45.32333" lon="6.15978">
        <ele>2038.69</ele>
        <time>2020-07-12T10:01:32Z</time>
      </trkpt>
      <trkpt lat="45.32344" lon="6.15977">
        <ele>2038.84</ele>
        <time>2020-07-12T10:01:19Z</time>
      </trkpt>
      <trkpt lat="45.32353" lon="6.15972">
        <ele>2050.34</ele>
        <time>2020-07-12T10:01:16Z</time>
      </trkpt>
      <trkpt lat="45.32366" lon="6.15967">
        <ele>2064.2</ele>
        <time>2020-07-12T10:01:14Z</time>
      </trkpt>
      <trkpt lat="45.32347" lon="6.1597">
        <ele>2019.88</ele>
        <time>2020-07-12T10:01:12Z</time>
      </trkpt>
      <trkpt lat="45.32352" lon="6.1583">
        <ele>2058.37</ele>
        <time>2020-07-12T09:34:29Z</time>
      </trkpt>
      <trkpt lat="45.32343" lon="6.15824">
        <ele>2056.72</ele>
        <time>2020-07-12T09:30:27Z</time>
      </trkpt>
      <trkpt lat="45.32349" lon="6.15834">
        <ele>2052.86</ele>
        <time>2020-07-12T09:29:26Z</time>
      </trkpt>
      <trkpt lat="45.32343" lon="6.15843">
        <ele>2064.46</ele>
        <time>2020-07-12T09:29:24Z</time>
      </trkpt>
      <trkpt lat="45.3233" lon="6.15843">
        <ele>2082.79</ele>
        <time>2020-07-12T09:29:23Z</time>
      </trkpt>
      <trkpt lat="45.32324" lon="6.15824">
        <ele>2082.45</ele>
        <time>2020-07-12T09:29:22Z</time>
      </trkpt>
      <trkpt lat="45.32335" lon="6.15832">
        <ele>2064.72</ele>
        <time>2020-07-12T09:29:21Z</time>
      </trkpt>
      <trkpt lat="45.32344" lon="6.15844">
        <ele>2040.08</ele>
        <time>2020-07-12T09:29:20Z</time>
      </trkpt>
      <trkpt lat="45.32352" lon="6.1583">
        <ele>2073.18</ele>
        <time>2020-07-12T09:21:40Z</time>
      </trkpt>
      <trkpt lat="45.32361" lon="6.15828">
        <ele>2055.44</ele>
        <time>2020-07-12T09:21:32Z</time>
      </trkpt>
      <trkpt lat="45.32361" lon="6.15843">
        <ele>2057.67</ele>
        <time>2020-07-12T09:21:31Z</time>
      </trkpt>
      <trkpt lat="45.32367" lon="6.15787">
        <ele>2063.79</ele>
        <time>2020-07-12T09:05:29Z</time>
      </trkpt>
      <trkpt lat="45.32373" lon="6.15777">
        <ele>2064.07</ele>
        <time>2020-07-12T09:05:22Z</time>
      </trkpt>
      <trkpt lat="45.32383" lon="6.15772">
        <ele>2064.03</ele>
        <time>2020-07-12T09:05:09Z</time>
      </trkpt>
      <trkpt lat="45.32385" lon="6.15757">
        <ele>2069.95</ele>
        <time>2020-07-12T09:04:44Z</time>
      </trkpt>
      <trkpt lat="45.3239" lon="6.15746">
        <ele>2076.33</ele>
        <time>2020-07-12T09:04:31Z</time>
      </trkpt>
      <trkpt lat="45.32392" lon="6.15732">
        <ele>2077.87</ele>
        <time>2020-07-12T09:03:37Z</time>
      </trkpt>
      <trkpt lat="45.32397" lon="6.1572">
        <ele>2082.33</ele>
        <time>2020-07-12T09:03:29Z</time>
      </trkpt>
      <trkpt lat="45.32402" lon="6.15709">
        <ele>2091.09</ele>
        <time>2020-07-12T09:03:13Z</time>
      </trkpt>
      <trkpt lat="45.32409" lon="6.15698">
        <ele>2092.92</ele>
        <time>2020-07-12T09:03:05Z</time>
      </trkpt>
      <trkpt lat="45.32406" lon="6.15685">
        <ele>2092.68</ele>
        <time>2020-07-12T09:02:58Z</time>
      </trkpt>
      <trkpt lat="45.32411" lon="6.15674">
        <ele>2091.89</ele>
        <time>2020-07-12T09:02:43Z</time>
      </trkpt>
      <trkpt lat="45.32417" lon="6.15662">
        <ele>2099.12</ele>
        <time>2020-07-12T09:02:27Z</time>
      </trkpt>
      <trkpt lat="45.32417" lon="6.15648">
        <ele>2103.08</ele>
        <time>2020-07-12T09:02:13Z</time>
      </trkpt>
      <trkpt lat="45.32426" lon="6.15645">
        <ele>2106.89</ele>
        <time>2020-07-12T09:02:00Z</time>
      </trkpt>
      <trkpt lat="45.32433" lon="6.15636">
        <ele>2111.88</ele>
        <time>2020-07-12T09:01:46Z</time>
      </trkpt>
      <trkpt lat="45.32438" lon="6.15625">
        <ele>2112.08</ele>
        <time>2020-07-12T09:01:33Z</time>
      </trkpt>
      <trkpt lat="45.32447" lon="6.15623">
        <ele>2114.85</ele>
        <time>2020-07-12T09:01:20Z</time>
      </trkpt>
      <trkpt lat="45.32456" lon="6.15623">
        <ele>2137.44</ele>
        <time>2020-07-12T09:01:08Z</time>
      </trkpt>
      <trkpt lat="45.3257" lon="6.1539">
        <ele>2195.72</ele>
        <time>2020-07-12T08:45:46Z</time>
      </trkpt>
      <trkpt lat="45.3257" lon="6.15377">
        <ele>2198.08</ele>
        <time>2020-07-12T08:45:25Z</time>
      </trkpt>
      <trkpt lat="45.32571" lon="6.15364">
        <ele>2200.07</ele>
        <time>2020-07-12T08:45:06Z</time>
      </trkpt>
      <trkpt lat="45.32573" lon="6.15351">
        <ele>2213.68</ele>
        <time>2020-07-12T08:44:23Z</time>
      </trkpt>
      <trkpt lat="45.32579" lon="6.15341">
        <ele>2217.88</ele>
        <time>2020-07-12T08:44:08Z</time>
      </trkpt>
      <trkpt lat="45.32584" lon="6.15331">
        <ele>2218.88</ele>
        <time>2020-07-12T08:43:51Z</time>
      </trkpt>
      <trkpt lat="45.32583" lon="6.15318">
        <ele>2220.04</ele>
        <time>2020-07-12T08:43:37Z</time>
      </trkpt>
      <trkpt lat="45.3258" lon="6.15306">
        <ele>2221.08</ele>
        <time>2020-07-12T08:43:07Z</time>
      </trkpt>
      <trkpt lat="45.32586" lon="6.15296">
        <ele>2224.92</ele>
        <time>2020-07-12T08:42:44Z</time>
      </trkpt>
      <trkpt lat="45.32592" lon="6.15286">
        <ele>2228.09</ele>
        <time>2020-07-12T08:42:24Z</time>
      </trkpt>
      <trkpt lat="45.32598" lon="6.15275">
        <ele>2234.08</ele>
        <time>2020-07-12T08:41:55Z</time>
      </trkpt>
      <trkpt lat="45.32606" lon="6.15268">
        <ele>2237.09</ele>
        <time>2020-07-12T08:41:44Z</time>
      </trkpt>
      <trkpt lat="45.32612" lon="6.15258">
        <ele>2241.88</ele>
        <time>2020-07-12T08:41:34Z</time>
      </trkpt>
      <trkpt lat="45.32616" lon="6.15242">
        <ele>2240.65</ele>
        <time>2020-07-12T08:41:17Z</time>
      </trkpt>
      <trkpt lat="45.3262" lon="6.15231">
        <ele>2244.92</ele>
        <time>2020-07-12T08:40:58Z</time>
      </trkpt>
      <trkpt lat="45.32624" lon="6.15219">
        <ele>2249.88</ele>
        <time>2020-07-12T08:40:43Z</time>
      </trkpt>
      <trkpt lat="45.32628" lon="6.15207">
        <ele>2251.85</ele>
        <time>2020-07-12T08:40:16Z</time>
      </trkpt>
      <trkpt lat="45.32627" lon="6.15193">
        <ele>2259.04</ele>
        <time>2020-07-12T08:38:18Z</time>
      </trkpt>
      <trkpt lat="45.32632" lon="6.15182">
        <ele>2259.08</ele>
        <time>2020-07-12T08:37:58Z</time>
      </trkpt>
      <trkpt lat="45.32632" lon="6.15168">
        <ele>2259.12</ele>
        <time>2020-07-12T08:37:52Z</time>
      </trkpt>
      <trkpt lat="45.32631" lon="6.15155">
        <ele>2261.88</ele>
        <time>2020-07-12T08:37:44Z</time>
      </trkpt>
      <trkpt lat="45.32629" lon="6.15141">
        <ele>2258.86</ele>
        <time>2020-07-12T08:37:39Z</time>
      </trkpt>
      <trkpt lat="45.32628" lon="6.15128">
        <ele>2256.88</ele>
        <time>2020-07-12T08:37:34Z</time>
      </trkpt>
      <trkpt lat="45.32629" lon="6.15114">
        <ele>2257.72</ele>
        <time>2020-07-12T08:36:57Z</time>
      </trkpt>
      <trkpt lat="45.3263" lon="6.15101">
        <ele>2264.88</ele>
        <time>2020-07-12T08:36:37Z</time>
      </trkpt>
      <trkpt lat="45.32629" lon="6.15088">
        <ele>2270.88</ele>
        <time>2020-07-12T08:36:25Z</time>
      </trkpt>
      <trkpt lat="45.32637" lon="6.15081">
        <ele>2273.17</ele>
        <time>2020-07-12T08:36:10Z</time>
      </trkpt>
      <trkpt lat="45.32646" lon="6.15073">
        <ele>2279.94</ele>
        <time>2020-07-12T08:35:50Z</time>
      </trkpt>
      <trkpt lat="45.32651" lon="6.15063">
        <ele>2286.28</ele>
        <time>2020-07-12T08:35:30Z</time>
      </trkpt>
      <trkpt lat="45.32645" lon="6.15051">
        <ele>2285.88</ele>
        <time>2020-07-12T08:35:11Z</time>
      </trkpt>
      <trkpt lat="45.32642" lon="6.15038">
        <ele>2293.12</ele>
        <time>2020-07-12T08:34:53Z</time>
      </trkpt>
      <trkpt lat="45.32633" lon="6.15034">
        <ele>2303.87</ele>
        <time>2020-07-12T08:30:23Z</time>
      </trkpt>
      <trkpt lat="45.32642" lon="6.15036">
        <ele>2296.15</ele>
        <time>2020-07-12T08:17:29Z</time>
      </trkpt>
      <trkpt lat="45.3264" lon="6.15023">
        <ele>2294.67</ele>
        <time>2020-07-12T08:17:10Z</time>
      </trkpt>
      <trkpt lat="45.32633" lon="6.15015">
        <ele>2280.88</ele>
        <time>2020-07-12T08:16:26Z</time>
      </trkpt>
      <trkpt lat="45.32641" lon="6.15008">
        <ele>2276.07</ele>
        <time>2020-07-12T08:16:02Z</time>
      </trkpt>
      <trkpt lat="45.32643" lon="6.14996">
        <ele>2267.88</ele>
        <time>2020-07-12T08:15:39Z</time>
      </trkpt>
      <trkpt lat="45.32653" lon="6.14996">
        <ele>2266.88</ele>
        <time>2020-07-12T08:15:06Z</time>
      </trkpt>
      <trkpt lat="45.32657" lon="6.14984">
        <ele>2266.08</ele>
        <time>2020-07-12T08:14:45Z</time>
      </trkpt>
      <trkpt lat="45.32662" lon="6.14972">
        <ele>2260.84</ele>
        <time>2020-07-12T08:14:24Z</time>
      </trkpt>
      <trkpt lat="45.32653" lon="6.14972">
        <ele>2256.89</ele>
        <time>2020-07-12T08:14:00Z</time>
      </trkpt>
      <trkpt lat="45.32644" lon="6.14968">
        <ele>2252.68</ele>
        <time>2020-07-12T08:13:36Z</time>
      </trkpt>
      <trkpt lat="45.32635" lon="6.14963">
        <ele>2251.89</ele>
        <time>2020-07-12T08:13:14Z</time>
      </trkpt>
      <trkpt lat="45.3263" lon="6.14952">
        <ele>2252.11</ele>
        <time>2020-07-12T08:10:09Z</time>
      </trkpt>
      <trkpt lat="45.32621" lon="6.14954">
        <ele>2244.37</ele>
        <time>2020-07-12T08:09:44Z</time>
      </trkpt>
      <trkpt lat="45.32622" lon="6.14941">
        <ele>2244.88</ele>
        <time>2020-07-12T08:09:29Z</time>
      </trkpt>
      <trkpt lat="45.32617" lon="6.14928">
        <ele>2239.68</ele>
        <time>2020-07-12T08:09:15Z</time>
      </trkpt>
      <trkpt lat="45.32613" lon="6.14916">
        <ele>2235.88</ele>
        <time>2020-07-12T08:09:05Z</time>
      </trkpt>
      <trkpt lat="45.32612" lon="6.14902">
        <ele>2232.64</ele>
        <time>2020-07-12T08:08:13Z</time>
      </trkpt>
      <trkpt lat="45.32618" lon="6.14893">
        <ele>2224.68</ele>
        <time>2020-07-12T08:07:55Z</time>
      </trkpt>
      <trkpt lat="45.32623" lon="6.14882">
        <ele>2226.48</ele>
        <time>2020-07-12T08:07:31Z</time>
      </trkpt>
      <trkpt lat="45.3263" lon="6.14872">
        <ele>2210.88</ele>
        <time>2020-07-12T08:06:56Z</time>
      </trkpt>
      <trkpt lat="45.32631" lon="6.14848">
        <ele>2194.64</ele>
        <time>2020-07-12T08:06:53Z</time>
      </trkpt>
      <trkpt lat="45.32635" lon="6.14836">
        <ele>2174.72</ele>
        <time>2020-07-12T08:06:34Z</time>
      </trkpt>
      <trkpt lat="45.3264" lon="6.14824">
        <ele>2162.23</ele>
        <time>2020-07-12T08:06:30Z</time>
      </trkpt>
      <trkpt lat="45.32643" lon="6.14811">
        <ele>2153.88</ele>
        <time>2020-07-12T08:06:27Z</time>
      </trkpt>
      <trkpt lat="45.32626" lon="6.149">
        <ele>2215.2</ele>
        <time>2020-07-12T08:06:14Z</time>
      </trkpt>
      <trkpt lat="45.32654" lon="6.14792">
        <ele>2188.88</ele>
        <time>2020-07-12T08:02:16Z</time>
      </trkpt>
      <trkpt lat="45.32648" lon="6.14781">
        <ele>2187.88</ele>
        <time>2020-07-12T08:01:52Z</time>
      </trkpt>
      <trkpt lat="45.32641" lon="6.14774">
        <ele>2186.64</ele>
        <time>2020-07-12T08:01:40Z</time>
      </trkpt>
      <trkpt lat="45.3264" lon="6.14761">
        <ele>2177.67</ele>
        <time>2020-07-12T08:00:46Z</time>
      </trkpt>
      <trkpt lat="45.32639" lon="6.14748">
        <ele>2172.68</ele>
        <time>2020-07-12T08:00:13Z</time>
      </trkpt>
      <trkpt lat="45.32635" lon="6.14737">
        <ele>2164.67</ele>
        <time>2020-07-12T07:59:27Z</time>
      </trkpt>
      <trkpt lat="45.32627" lon="6.14731">
        <ele>2161.08</ele>
        <time>2020-07-12T07:58:57Z</time>
      </trkpt>
      <trkpt lat="45.32623" lon="6.14719">
        <ele>2151.86</ele>
        <time>2020-07-12T07:58:28Z</time>
      </trkpt>
      <trkpt lat="45.32619" lon="6.14705">
        <ele>2149.68</ele>
        <time>2020-07-12T07:58:11Z</time>
      </trkpt>
      <trkpt lat="45.32619" lon="6.14692">
        <ele>2145.68</ele>
        <time>2020-07-12T07:57:51Z</time>
      </trkpt>
      <trkpt lat="45.32617" lon="6.14678">
        <ele>2137.88</ele>
        <time>2020-07-12T07:57:29Z</time>
      </trkpt>
      <trkpt lat="45.32614" lon="6.14664">
        <ele>2134.88</ele>
        <time>2020-07-12T07:56:25Z</time>
      </trkpt>
      <trkpt lat="45.32608" lon="6.14655">
        <ele>2133.09</ele>
        <time>2020-07-12T07:56:04Z</time>
      </trkpt>
      <trkpt lat="45.32604" lon="6.14643">
        <ele>2130.89</ele>
        <time>2020-07-12T07:55:47Z</time>
      </trkpt>
      <trkpt lat="45.32604" lon="6.1463">
        <ele>2132.88</ele>
        <time>2020-07-12T07:55:17Z</time>
      </trkpt>
      <trkpt lat="45.32606" lon="6.14617">
        <ele>2131.8</ele>
        <time>2020-07-12T07:55:06Z</time>
      </trkpt>
      <trkpt lat="45.32604" lon="6.14604">
        <ele>2127.9</ele>
        <time>2020-07-12T07:54:51Z</time>
      </trkpt>
      <trkpt lat="45.32601" lon="6.14591">
        <ele>2125.93</ele>
        <time>2020-07-12T07:54:43Z</time>
      </trkpt>
      <trkpt lat="45.32599" lon="6.14578">
        <ele>2133.66</ele>
        <time>2020-07-12T07:53:58Z</time>
      </trkpt>
      <trkpt lat="45.32595" lon="6.14566">
        <ele>2125.87</ele>
        <time>2020-07-12T07:53:47Z</time>
      </trkpt>
      <trkpt lat="45.32596" lon="6.14552">
        <ele>2123.94</ele>
        <time>2020-07-12T07:53:31Z</time>
      </trkpt>
      <trkpt lat="45.32597" lon="6.14539">
        <ele>2109.82</ele>
        <time>2020-07-12T07:53:03Z</time>
      </trkpt>
      <trkpt lat="45.32596" lon="6.14526">
        <ele>2100.93</ele>
        <time>2020-07-12T07:52:48Z</time>
      </trkpt>
      <trkpt lat="45.32593" lon="6.14514">
        <ele>2102.03</ele>
        <time>2020-07-12T07:51:38Z</time>
      </trkpt>
      <trkpt lat="45.32597" lon="6.14502">
        <ele>2091.88</ele>
        <time>2020-07-12T07:51:17Z</time>
      </trkpt>
      <trkpt lat="45.32606" lon="6.14496">
        <ele>2094.8</ele>
        <time>2020-07-12T07:51:06Z</time>
      </trkpt>
      <trkpt lat="45.32609" lon="6.14484">
        <ele>2092.64</ele>
        <time>2020-07-12T07:50:50Z</time>
      </trkpt>
      <trkpt lat="45.32613" lon="6.14472">
        <ele>2092.02</ele>
        <time>2020-07-12T07:50:36Z</time>
      </trkpt>
      <trkpt lat="45.32618" lon="6.14461">
        <ele>2093.08</ele>
        <time>2020-07-12T07:50:26Z</time>
      </trkpt>
      <trkpt lat="45.32623" lon="6.1445">
        <ele>2090.84</ele>
        <time>2020-07-12T07:50:00Z</time>
      </trkpt>
      <trkpt lat="45.32622" lon="6.14436">
        <ele>2081.91</ele>
        <time>2020-07-12T07:49:34Z</time>
      </trkpt>
      <trkpt lat="45.32626" lon="6.14424">
        <ele>2072.83</ele>
        <time>2020-07-12T07:49:13Z</time>
      </trkpt>
      <trkpt lat="45.32632" lon="6.14414">
        <ele>2066.12</ele>
        <time>2020-07-12T07:49:03Z</time>
      </trkpt>
      <trkpt lat="45.32636" lon="6.14401">
        <ele>2064.27</ele>
        <time>2020-07-12T07:48:42Z</time>
      </trkpt>
      <trkpt lat="45.32631" lon="6.14389">
        <ele>2066.25</ele>
        <time>2020-07-12T07:48:19Z</time>
      </trkpt>
      <trkpt lat="45.32631" lon="6.14375">
        <ele>2060.68</ele>
        <time>2020-07-12T07:48:00Z</time>
      </trkpt>
      <trkpt lat="45.32633" lon="6.14362">
        <ele>2061.84</ele>
        <time>2020-07-12T07:47:51Z</time>
      </trkpt>
      <trkpt lat="45.32631" lon="6.14349">
        <ele>2058.63</ele>
        <time>2020-07-12T07:47:41Z</time>
      </trkpt>
      <trkpt lat="45.3263" lon="6.14336">
        <ele>2053.68</ele>
        <time>2020-07-12T07:47:00Z</time>
      </trkpt>
      <trkpt lat="45.32631" lon="6.14323">
        <ele>2052.87</ele>
        <time>2020-07-12T07:46:47Z</time>
      </trkpt>
      <trkpt lat="45.32638" lon="6.14315">
        <ele>2051.87</ele>
        <time>2020-07-12T07:46:37Z</time>
      </trkpt>
      <trkpt lat="45.32636" lon="6.143">
        <ele>2045.64</ele>
        <time>2020-07-12T07:46:21Z</time>
      </trkpt>
      <trkpt lat="45.32632" lon="6.14288">
        <ele>2041.88</ele>
        <time>2020-07-12T07:45:47Z</time>
      </trkpt>
      <trkpt lat="45.32629" lon="6.14275">
        <ele>2034.87</ele>
        <time>2020-07-12T07:43:18Z</time>
      </trkpt>
      <trkpt lat="45.32625" lon="6.14263">
        <ele>2030.71</ele>
        <time>2020-07-12T07:43:05Z</time>
      </trkpt>
      <trkpt lat="45.32621" lon="6.1425">
        <ele>2031.07</ele>
        <time>2020-07-12T07:42:50Z</time>
      </trkpt>
      <trkpt lat="45.3262" lon="6.14237">
        <ele>2030.91</ele>
        <time>2020-07-12T07:42:35Z</time>
      </trkpt>
      <trkpt lat="45.32615" lon="6.14225">
        <ele>2031.68</ele>
        <time>2020-07-12T07:42:22Z</time>
      </trkpt>
      <trkpt lat="45.32611" lon="6.14213">
        <ele>2030.89</ele>
        <time>2020-07-12T07:42:05Z</time>
      </trkpt>
      <trkpt lat="45.32609" lon="6.142">
        <ele>2031.88</ele>
        <time>2020-07-12T07:41:39Z</time>
      </trkpt>
      <trkpt lat="45.3261" lon="6.14188">
        <ele>2031.87</ele>
        <time>2020-07-12T07:41:11Z</time>
      </trkpt>
      <trkpt lat="45.32618" lon="6.14179">
        <ele>2031.67</ele>
        <time>2020-07-12T07:40:46Z</time>
      </trkpt>
      <trkpt lat="45.32626" lon="6.14172">
        <ele>2032.89</ele>
        <time>2020-07-12T07:40:00Z</time>
      </trkpt>
      <trkpt lat="45.32617" lon="6.14175">
        <ele>2023.08</ele>
        <time>2020-07-12T07:38:27Z</time>
      </trkpt>
      <trkpt lat="45.32625" lon="6.14169">
        <ele>2031.72</ele>
        <time>2020-07-12T07:35:05Z</time>
      </trkpt>
      <trkpt lat="45.32634" lon="6.14161">
        <ele>2029.87</ele>
        <time>2020-07-12T07:33:24Z</time>
      </trkpt>
      <trkpt lat="45.32636" lon="6.14148">
        <ele>2030.92</ele>
        <time>2020-07-12T07:33:07Z</time>
      </trkpt>
      <trkpt lat="45.32631" lon="6.14136">
        <ele>2027.67</ele>
        <time>2020-07-12T07:32:57Z</time>
      </trkpt>
      <trkpt lat="45.32637" lon="6.14126">
        <ele>2026.9</ele>
        <time>2020-07-12T07:32:41Z</time>
      </trkpt>
      <trkpt lat="45.32637" lon="6.14113">
        <ele>2033.7</ele>
        <time>2020-07-12T07:32:26Z</time>
      </trkpt>
      <trkpt lat="45.32643" lon="6.14103">
        <ele>2029.68</ele>
        <time>2020-07-12T07:32:18Z</time>
      </trkpt>
      <trkpt lat="45.32638" lon="6.1409">
        <ele>2026.88</ele>
        <time>2020-07-12T07:32:07Z</time>
      </trkpt>
      <trkpt lat="45.32639" lon="6.14077">
        <ele>2022.67</ele>
        <time>2020-07-12T07:31:49Z</time>
      </trkpt>
      <trkpt lat="45.32642" lon="6.14064">
        <ele>2020.64</ele>
        <time>2020-07-12T07:31:36Z</time>
      </trkpt>
      <trkpt lat="45.32643" lon="6.14051">
        <ele>2013.87</ele>
        <time>2020-07-12T07:31:17Z</time>
      </trkpt>
      <trkpt lat="45.3265" lon="6.1404">
        <ele>2014.88</ele>
        <time>2020-07-12T07:31:02Z</time>
      </trkpt>
      <trkpt lat="45.3265" lon="6.14027">
        <ele>2013.52</ele>
        <time>2020-07-12T07:30:22Z</time>
      </trkpt>
      <trkpt lat="45.32657" lon="6.14017">
        <ele>2014.48</ele>
        <time>2020-07-12T07:30:11Z</time>
      </trkpt>
      <trkpt lat="45.32665" lon="6.14009">
        <ele>2016.84</ele>
        <time>2020-07-12T07:29:56Z</time>
      </trkpt>
      <trkpt lat="45.32673" lon="6.14004">
        <ele>2024.88</ele>
        <time>2020-07-12T07:29:22Z</time>
      </trkpt>
      <trkpt lat="45.32676" lon="6.1399">
        <ele>2025.72</ele>
        <time>2020-07-12T07:29:12Z</time>
      </trkpt>
      <trkpt lat="45.32682" lon="6.1398">
        <ele>2025.07</ele>
        <time>2020-07-12T07:29:00Z</time>
      </trkpt>
      <trkpt lat="45.32688" lon="6.1397">
        <ele>2028.72</ele>
        <time>2020-07-12T07:28:34Z</time>
      </trkpt>
      <trkpt lat="45.32698" lon="6.13965">
        <ele>2028.92</ele>
        <time>2020-07-12T07:28:25Z</time>
      </trkpt>
      <trkpt lat="45.32705" lon="6.13958">
        <ele>2034.84</ele>
        <time>2020-07-12T07:27:31Z</time>
      </trkpt>
      <trkpt lat="45.32712" lon="6.13966">
        <ele>2027.88</ele>
        <time>2020-07-12T07:26:50Z</time>
      </trkpt>
      <trkpt lat="45.3272" lon="6.13973">
        <ele>2027.36</ele>
        <time>2020-07-12T07:26:28Z</time>
      </trkpt>
      <trkpt lat="45.32731" lon="6.13975">
        <ele>2021.88</ele>
        <time>2020-07-12T07:26:22Z</time>
      </trkpt>
      <trkpt lat="45.3274" lon="6.13979">
        <ele>2027.68</ele>
        <time>2020-07-12T07:26:05Z</time>
      </trkpt>
      <trkpt lat="45.32749" lon="6.13974">
        <ele>2026.67</ele>
        <time>2020-07-12T07:25:41Z</time>
      </trkpt>
      <trkpt lat="45.32758" lon="6.13977">
        <ele>2014.92</ele>
        <time>2020-07-12T07:25:12Z</time>
      </trkpt>
      <trkpt lat="45.32763" lon="6.13966">
        <ele>2018.88</ele>
        <time>2020-07-12T07:24:51Z</time>
      </trkpt>
      <trkpt lat="45.32772" lon="6.13962">
        <ele>2016.87</ele>
        <time>2020-07-12T07:24:39Z</time>
      </trkpt>
      <trkpt lat="45.32781" lon="6.13959">
        <ele>2014.88</ele>
        <time>2020-07-12T07:24:28Z</time>
      </trkpt>
      <trkpt lat="45.3279" lon="6.1396">
        <ele>2018.64</ele>
        <time>2020-07-12T07:24:06Z</time>
      </trkpt>
      <trkpt lat="45.328" lon="6.13964">
        <ele>2013.4</ele>
        <time>2020-07-12T07:23:56Z</time>
      </trkpt>
      <trkpt lat="45.32809" lon="6.13967">
        <ele>2006.63</ele>
        <time>2020-07-12T07:23:48Z</time>
      </trkpt>
      <trkpt lat="45.32819" lon="6.13965">
        <ele>2005.88</ele>
        <time>2020-07-12T07:23:22Z</time>
      </trkpt>
      <trkpt lat="45.32828" lon="6.13968">
        <ele>2001.73</ele>
        <time>2020-07-12T07:23:09Z</time>
      </trkpt>
      <trkpt lat="45.32837" lon="6.13961">
        <ele>1998.86</ele>
        <time>2020-07-12T07:22:48Z</time>
      </trkpt>
      <trkpt lat="45.32841" lon="6.13948">
        <ele>1996.52</ele>
        <time>2020-07-12T07:22:40Z</time>
      </trkpt>
      <trkpt lat="45.32847" lon="6.13938">
        <ele>1997.68</ele>
        <time>2020-07-12T07:22:12Z</time>
      </trkpt>
      <trkpt lat="45.32853" lon="6.13928">
        <ele>1995.94</ele>
        <time>2020-07-12T07:22:04Z</time>
      </trkpt>
      <trkpt lat="45.3286" lon="6.13918">
        <ele>2001.87</ele>
        <time>2020-07-12T07:21:53Z</time>
      </trkpt>
      <trkpt lat="45.32869" lon="6.13913">
        <ele>1990.83</ele>
        <time>2020-07-12T07:20:47Z</time>
      </trkpt>
      <trkpt lat="45.32878" lon="6.13911">
        <ele>1984.77</ele>
        <time>2020-07-12T07:20:30Z</time>
      </trkpt>
      <trkpt lat="45.32887" lon="6.13907">
        <ele>1978.44</ele>
        <time>2020-07-12T07:20:23Z</time>
      </trkpt>
      <trkpt lat="45.32894" lon="6.13899">
        <ele>1974.62</ele>
        <time>2020-07-12T07:20:14Z</time>
      </trkpt>
      <trkpt lat="45.32894" lon="6.13886">
        <ele>1984.72</ele>
        <time>2020-07-12T07:20:01Z</time>
      </trkpt>
      <trkpt lat="45.32904" lon="6.13885">
        <ele>1977.88</ele>
        <time>2020-07-12T07:19:34Z</time>
      </trkpt>
      <trkpt lat="45.32913" lon="6.13881">
        <ele>1969.68</ele>
        <time>2020-07-12T07:19:14Z</time>
      </trkpt>
      <trkpt lat="45.32921" lon="6.13875">
        <ele>1967.71</ele>
        <time>2020-07-12T07:19:03Z</time>
      </trkpt>
      <trkpt lat="45.32925" lon="6.13863">
        <ele>1967.58</ele>
        <time>2020-07-12T07:18:29Z</time>
      </trkpt>
      <trkpt lat="45.32935" lon="6.1386">
        <ele>1959.83</ele>
        <time>2020-07-12T07:18:06Z</time>
      </trkpt>
      <trkpt lat="45.32933" lon="6.13847">
        <ele>1956.56</ele>
        <time>2020-07-12T07:17:56Z</time>
      </trkpt>
      <trkpt lat="45.32935" lon="6.13834">
        <ele>1954.9</ele>
        <time>2020-07-12T07:17:42Z</time>
      </trkpt>
      <trkpt lat="45.32938" lon="6.13822">
        <ele>1947.92</ele>
        <time>2020-07-12T07:16:29Z</time>
      </trkpt>
      <trkpt lat="45.32937" lon="6.13808">
        <ele>1948.05</ele>
        <time>2020-07-12T07:15:51Z</time>
      </trkpt>
      <trkpt lat="45.32935" lon="6.13795">
        <ele>1947.84</ele>
        <time>2020-07-12T07:14:48Z</time>
      </trkpt>
      <trkpt lat="45.32944" lon="6.13796">
        <ele>1947.84</ele>
        <time>2020-07-12T07:14:32Z</time>
      </trkpt>
      <trkpt lat="45.32952" lon="6.13788">
        <ele>1942.08</ele>
        <time>2020-07-12T07:13:52Z</time>
      </trkpt>
      <trkpt lat="45.32961" lon="6.13783">
        <ele>1938.04</ele>
        <time>2020-07-12T07:13:34Z</time>
      </trkpt>
      <trkpt lat="45.32969" lon="6.13779">
        <ele>1932.83</ele>
        <time>2020-07-12T07:13:00Z</time>
      </trkpt>
      <trkpt lat="45.32977" lon="6.13772">
        <ele>1922.63</ele>
        <time>2020-07-12T07:12:15Z</time>
      </trkpt>
      <trkpt lat="45.32982" lon="6.13761">
        <ele>1914.69</ele>
        <time>2020-07-12T07:11:44Z</time>
      </trkpt>
      <trkpt lat="45.32988" lon="6.13752">
        <ele>1907.67</ele>
        <time>2020-07-12T07:11:06Z</time>
      </trkpt>
      <trkpt lat="45.32996" lon="6.13744">
        <ele>1905.07</ele>
        <time>2020-07-12T07:10:52Z</time>
      </trkpt>
      <trkpt lat="45.33003" lon="6.13734">
        <ele>1905.71</ele>
        <time>2020-07-12T07:10:30Z</time>
      </trkpt>
      <trkpt lat="45.33012" lon="6.13731">
        <ele>1902.68</ele>
        <time>2020-07-12T07:10:03Z</time>
      </trkpt>
      <trkpt lat="45.3302" lon="6.13725">
        <ele>1895.67</ele>
        <time>2020-07-12T07:09:40Z</time>
      </trkpt>
      <trkpt lat="45.33028" lon="6.13719">
        <ele>1891.69</ele>
        <time>2020-07-12T07:09:27Z</time>
      </trkpt>
      <trkpt lat="45.33036" lon="6.13711">
        <ele>1891.91</ele>
        <time>2020-07-12T07:09:12Z</time>
      </trkpt>
      <trkpt lat="45.33041" lon="6.13701">
        <ele>1892.68</ele>
        <time>2020-07-12T07:09:00Z</time>
      </trkpt>
      <trkpt lat="45.33048" lon="6.13691">
        <ele>1891.88</ele>
        <time>2020-07-12T07:08:42Z</time>
      </trkpt>
      <trkpt lat="45.33054" lon="6.13682">
        <ele>1885.72</ele>
        <time>2020-07-12T07:08:07Z</time>
      </trkpt>
      <trkpt lat="45.33057" lon="6.13669">
        <ele>1875.68</ele>
        <time>2020-07-12T07:07:49Z</time>
      </trkpt>
      <trkpt lat="45.33063" lon="6.13657">
        <ele>1868.86</ele>
        <time>2020-07-12T07:07:05Z</time>
      </trkpt>
      <trkpt lat="45.33071" lon="6.1365">
        <ele>1858.08</ele>
        <time>2020-07-12T07:06:08Z</time>
      </trkpt>
      <trkpt lat="45.33078" lon="6.13657">
        <ele>1855.87</ele>
        <time>2020-07-12T07:05:45Z</time>
      </trkpt>
      <trkpt lat="45.33082" lon="6.1367">
        <ele>1851.84</ele>
        <time>2020-07-12T07:04:58Z</time>
      </trkpt>
      <trkpt lat="45.3309" lon="6.13677">
        <ele>1852.87</ele>
        <time>2020-07-12T07:04:51Z</time>
      </trkpt>
      <trkpt lat="45.33099" lon="6.13674">
        <ele>1850.68</ele>
        <time>2020-07-12T07:04:33Z</time>
      </trkpt>
      <trkpt lat="45.33107" lon="6.13669">
        <ele>1850.88</ele>
        <time>2020-07-12T07:04:16Z</time>
      </trkpt>
      <trkpt lat="45.33116" lon="6.13666">
        <ele>1849.68</ele>
        <time>2020-07-12T07:04:03Z</time>
      </trkpt>
      <trkpt lat="45.33127" lon="6.13663">
        <ele>1848.87</ele>
        <time>2020-07-12T07:03:49Z</time>
      </trkpt>
      <trkpt lat="45.33134" lon="6.13656">
        <ele>1845.6</ele>
        <time>2020-07-12T07:03:22Z</time>
      </trkpt>
      <trkpt lat="45.33142" lon="6.13648">
        <ele>1844.68</ele>
        <time>2020-07-12T07:03:13Z</time>
      </trkpt>
      <trkpt lat="45.33153" lon="6.13649">
        <ele>1840</ele>
        <time>2020-07-12T07:02:50Z</time>
      </trkpt>
      <trkpt lat="45.3316" lon="6.13641">
        <ele>1842.67</ele>
        <time>2020-07-12T07:02:36Z</time>
      </trkpt>
      <trkpt lat="45.3317" lon="6.13641">
        <ele>1837.79</ele>
        <time>2020-07-12T07:02:25Z</time>
      </trkpt>
      <trkpt lat="45.33175" lon="6.13629">
        <ele>1832.88</ele>
        <time>2020-07-12T07:02:00Z</time>
      </trkpt>
      <trkpt lat="45.3318" lon="6.13619">
        <ele>1832.68</ele>
        <time>2020-07-12T07:01:06Z</time>
      </trkpt>
      <trkpt lat="45.33189" lon="6.13615">
        <ele>1828.68</ele>
        <time>2020-07-12T07:00:49Z</time>
      </trkpt>
      <trkpt lat="45.33192" lon="6.13603">
        <ele>1822.88</ele>
        <time>2020-07-12T07:00:23Z</time>
      </trkpt>
      <trkpt lat="45.33194" lon="6.1359">
        <ele>1822.88</ele>
        <time>2020-07-12T07:00:02Z</time>
      </trkpt>
      <trkpt lat="45.33201" lon="6.13581">
        <ele>1816.31</ele>
        <time>2020-07-12T06:59:50Z</time>
      </trkpt>
      <trkpt lat="45.33201" lon="6.13565">
        <ele>1810.9</ele>
        <time>2020-07-12T06:58:42Z</time>
      </trkpt>
      <trkpt lat="45.33204" lon="6.13553">
        <ele>1812.67</ele>
        <time>2020-07-12T06:58:20Z</time>
      </trkpt>
      <trkpt lat="45.33211" lon="6.13541">
        <ele>1809.84</ele>
        <time>2020-07-12T06:57:37Z</time>
      </trkpt>
      <trkpt lat="45.33217" lon="6.13532">
        <ele>1803.86</ele>
        <time>2020-07-12T06:57:20Z</time>
      </trkpt>
      <trkpt lat="45.33223" lon="6.13522">
        <ele>1799.92</ele>
        <time>2020-07-12T06:57:06Z</time>
      </trkpt>
      <trkpt lat="45.33229" lon="6.13512">
        <ele>1792.69</ele>
        <time>2020-07-12T06:56:38Z</time>
      </trkpt>
      <trkpt lat="45.33237" lon="6.13505">
        <ele>1793.84</ele>
        <time>2020-07-12T06:56:24Z</time>
      </trkpt>
      <trkpt lat="45.33245" lon="6.13497">
        <ele>1789.88</ele>
        <time>2020-07-12T06:56:00Z</time>
      </trkpt>
      <trkpt lat="45.33253" lon="6.13493">
        <ele>1785.84</ele>
        <time>2020-07-12T06:55:23Z</time>
      </trkpt>
      <trkpt lat="45.33262" lon="6.13495">
        <ele>1779.47</ele>
        <time>2020-07-12T06:54:54Z</time>
      </trkpt>
      <trkpt lat="45.33272" lon="6.13497">
        <ele>1776.66</ele>
        <time>2020-07-12T06:54:33Z</time>
      </trkpt>
      <trkpt lat="45.33281" lon="6.13503">
        <ele>1774.59</ele>
        <time>2020-07-12T06:54:19Z</time>
      </trkpt>
      <trkpt lat="45.3329" lon="6.13503">
        <ele>1769.72</ele>
        <time>2020-07-12T06:54:07Z</time>
      </trkpt>
      <trkpt lat="45.33299" lon="6.13502">
        <ele>1767.68</ele>
        <time>2020-07-12T06:53:57Z</time>
      </trkpt>
      <trkpt lat="45.3331" lon="6.13502">
        <ele>1768.87</ele>
        <time>2020-07-12T06:53:41Z</time>
      </trkpt>
      <trkpt lat="45.3332" lon="6.13505">
        <ele>1759.87</ele>
        <time>2020-07-12T06:53:19Z</time>
      </trkpt>
      <trkpt lat="45.33327" lon="6.13514">
        <ele>1757.91</ele>
        <time>2020-07-12T06:52:57Z</time>
      </trkpt>
      <trkpt lat="45.33333" lon="6.13523">
        <ele>1758.84</ele>
        <time>2020-07-12T06:52:39Z</time>
      </trkpt>
      <trkpt lat="45.33342" lon="6.13518">
        <ele>1755.88</ele>
        <time>2020-07-12T06:52:28Z</time>
      </trkpt>
      <trkpt lat="45.3335" lon="6.13509">
        <ele>1757.88</ele>
        <time>2020-07-12T06:52:15Z</time>
      </trkpt>
      <trkpt lat="45.33356" lon="6.13499">
        <ele>1758.68</ele>
        <time>2020-07-12T06:52:04Z</time>
      </trkpt>
      <trkpt lat="45.33365" lon="6.13498">
        <ele>1756.88</ele>
        <time>2020-07-12T06:51:46Z</time>
      </trkpt>
      <trkpt lat="45.33374" lon="6.13502">
        <ele>1752.83</ele>
        <time>2020-07-12T06:51:24Z</time>
      </trkpt>
      <trkpt lat="45.33384" lon="6.13502">
        <ele>1747.88</ele>
        <time>2020-07-12T06:51:03Z</time>
      </trkpt>
      <trkpt lat="45.33393" lon="6.13499">
        <ele>1745.88</ele>
        <time>2020-07-12T06:50:43Z</time>
      </trkpt>
      <trkpt lat="45.33402" lon="6.13502">
        <ele>1739.88</ele>
        <time>2020-07-12T06:50:32Z</time>
      </trkpt>
      <trkpt lat="45.33411" lon="6.13506">
        <ele>1738.85</ele>
        <time>2020-07-12T06:50:22Z</time>
      </trkpt>
      <trkpt lat="45.33419" lon="6.1351">
        <ele>1738.08</ele>
        <time>2020-07-12T06:50:14Z</time>
      </trkpt>
      <trkpt lat="45.33428" lon="6.13513">
        <ele>1738.87</ele>
        <time>2020-07-12T06:50:00Z</time>
      </trkpt>
      <trkpt lat="45.33437" lon="6.13518">
        <ele>1736.84</ele>
        <time>2020-07-12T06:49:47Z</time>
      </trkpt>
      <trkpt lat="45.33446" lon="6.13521">
        <ele>1733.88</ele>
        <time>2020-07-12T06:49:28Z</time>
      </trkpt>
      <trkpt lat="45.33455" lon="6.13521">
        <ele>1730.64</ele>
        <time>2020-07-12T06:49:10Z</time>
      </trkpt>
      <trkpt lat="45.33463" lon="6.13528">
        <ele>1725.87</ele>
        <time>2020-07-12T06:48:35Z</time>
      </trkpt>
      <trkpt lat="45.33471" lon="6.13524">
        <ele>1726.75</ele>
        <time>2020-07-12T06:48:20Z</time>
      </trkpt>
      <trkpt lat="45.33481" lon="6.13523">
        <ele>1726.67</ele>
        <time>2020-07-12T06:48:08Z</time>
      </trkpt>
      <trkpt lat="45.3349" lon="6.13521">
        <ele>1721.8</ele>
        <time>2020-07-12T06:48:00Z</time>
      </trkpt>
      <trkpt lat="45.33499" lon="6.13514">
        <ele>1720.88</ele>
        <time>2020-07-12T06:47:49Z</time>
      </trkpt>
      <trkpt lat="45.33507" lon="6.13509">
        <ele>1720.84</ele>
        <time>2020-07-12T06:47:38Z</time>
      </trkpt>
      <trkpt lat="45.33516" lon="6.13505">
        <ele>1721.88</ele>
        <time>2020-07-12T06:47:25Z</time>
      </trkpt>
      <trkpt lat="45.33525" lon="6.13502">
        <ele>1726.92</ele>
        <time>2020-07-12T06:47:12Z</time>
      </trkpt>
      <trkpt lat="45.33534" lon="6.13497">
        <ele>1722.49</ele>
        <time>2020-07-12T06:44:13Z</time>
      </trkpt>
      <trkpt lat="45.33543" lon="6.13487">
        <ele>1701.28</ele>
        <time>2020-07-12T06:44:11Z</time>
      </trkpt>
      <trkpt lat="45.33601" lon="6.13548">
        <ele>1692.06</ele>
        <time>2020-07-12T06:42:06Z</time>
      </trkpt>
      <trkpt lat="45.3361" lon="6.13551">
        <ele>1696.04</ele>
        <time>2020-07-12T06:41:52Z</time>
      </trkpt>
      <trkpt lat="45.3362" lon="6.13551">
        <ele>1701.09</ele>
        <time>2020-07-12T06:41:28Z</time>
      </trkpt>
      <trkpt lat="45.3363" lon="6.13548">
        <ele>1703.88</ele>
        <time>2020-07-12T06:41:22Z</time>
      </trkpt>
      <trkpt lat="45.33639" lon="6.13553">
        <ele>1701.12</ele>
        <time>2020-07-12T06:41:05Z</time>
      </trkpt>
      <trkpt lat="45.33683" lon="6.13583">
        <ele>1694.27</ele>
        <time>2020-07-12T06:39:51Z</time>
      </trkpt>
      <trkpt lat="45.33704" lon="6.13578">
        <ele>1711.85</ele>
        <time>2020-07-12T06:38:26Z</time>
      </trkpt>
      <trkpt lat="45.33714" lon="6.13578">
        <ele>1715.3</ele>
        <time>2020-07-12T06:38:11Z</time>
      </trkpt>
      <trkpt lat="45.33723" lon="6.13575">
        <ele>1717.28</ele>
        <time>2020-07-12T06:38:05Z</time>
      </trkpt>
      <trkpt lat="45.33771" lon="6.13617">
        <ele>1704.68</ele>
        <time>2020-07-12T06:36:31Z</time>
      </trkpt>
      <trkpt lat="45.33776" lon="6.13629">
        <ele>1702.88</ele>
        <time>2020-07-12T06:36:08Z</time>
      </trkpt>
      <trkpt lat="45.33785" lon="6.13631">
        <ele>1703.64</ele>
        <time>2020-07-12T06:35:55Z</time>
      </trkpt>
      <trkpt lat="45.33795" lon="6.13631">
        <ele>1706.12</ele>
        <time>2020-07-12T06:35:45Z</time>
      </trkpt>
      <trkpt lat="45.33804" lon="6.13635">
        <ele>1704.88</ele>
        <time>2020-07-12T06:35:30Z</time>
      </trkpt>
      <trkpt lat="45.33811" lon="6.13644">
        <ele>1697.87</ele>
        <time>2020-07-12T06:34:56Z</time>
      </trkpt>
      <trkpt lat="45.33815" lon="6.13656">
        <ele>1698.01</ele>
        <time>2020-07-12T06:34:43Z</time>
      </trkpt>
      <trkpt lat="45.33825" lon="6.13655">
        <ele>1700.31</ele>
        <time>2020-07-12T06:34:33Z</time>
      </trkpt>
      <trkpt lat="45.33834" lon="6.1366">
        <ele>1693.88</ele>
        <time>2020-07-12T06:34:22Z</time>
      </trkpt>
      <trkpt lat="45.33843" lon="6.13663">
        <ele>1690.92</ele>
        <time>2020-07-12T06:34:13Z</time>
      </trkpt>
      <trkpt lat="45.33853" lon="6.13661">
        <ele>1693.68</ele>
        <time>2020-07-12T06:34:07Z</time>
      </trkpt>
      <trkpt lat="45.33862" lon="6.13663">
        <ele>1696.63</ele>
        <time>2020-07-12T06:33:44Z</time>
      </trkpt>
      <trkpt lat="45.33868" lon="6.13654">
        <ele>1711.12</ele>
        <time>2020-07-12T06:33:37Z</time>
      </trkpt>
      <trkpt lat="45.33889" lon="6.13615">
        <ele>1685.31</ele>
        <time>2020-07-12T06:32:36Z</time>
      </trkpt>
      <trkpt lat="45.33894" lon="6.13605">
        <ele>1688.49</ele>
        <time>2020-07-12T06:32:28Z</time>
      </trkpt>
      <trkpt lat="45.3395" lon="6.13588">
        <ele>1692.19</ele>
        <time>2020-07-12T06:31:04Z</time>
      </trkpt>
      <trkpt lat="45.34003" lon="6.13584">
        <ele>1686.92</ele>
        <time>2020-07-12T06:30:07Z</time>
      </trkpt>
      <trkpt lat="45.34013" lon="6.13585">
        <ele>1703.23</ele>
        <time>2020-07-12T06:29:50Z</time>
      </trkpt>
      <trkpt lat="45.34061" lon="6.13564">
        <ele>1667.68</ele>
        <time>2020-07-12T06:28:50Z</time>
      </trkpt>
      <trkpt lat="45.34098" lon="6.13548">
        <ele>1671.68</ele>
        <time>2020-07-12T06:27:03Z</time>
      </trkpt>
      <trkpt lat="45.34106" lon="6.13543">
        <ele>1668.88</ele>
        <time>2020-07-12T06:26:49Z</time>
      </trkpt>
      <trkpt lat="45.3411" lon="6.13531">
        <ele>1667.85</ele>
        <time>2020-07-12T06:26:31Z</time>
      </trkpt>
      <trkpt lat="45.34116" lon="6.13521">
        <ele>1668.53</ele>
        <time>2020-07-12T06:26:17Z</time>
      </trkpt>
      <trkpt lat="45.34124" lon="6.13516">
        <ele>1670.88</ele>
        <time>2020-07-12T06:26:11Z</time>
      </trkpt>
      <trkpt lat="45.34134" lon="6.13511">
        <ele>1670.71</ele>
        <time>2020-07-12T06:26:06Z</time>
      </trkpt>
      <trkpt lat="45.34142" lon="6.13504">
        <ele>1671.07</ele>
        <time>2020-07-12T06:25:59Z</time>
      </trkpt>
      <trkpt lat="45.34151" lon="6.135">
        <ele>1668.87</ele>
        <time>2020-07-12T06:25:53Z</time>
      </trkpt>
      <trkpt lat="45.3416" lon="6.13496">
        <ele>1667.68</ele>
        <time>2020-07-12T06:25:27Z</time>
      </trkpt>
      <trkpt lat="45.34168" lon="6.13493">
        <ele>1659.93</ele>
        <time>2020-07-12T06:25:05Z</time>
      </trkpt>
      <trkpt lat="45.34178" lon="6.13492">
        <ele>1661.87</ele>
        <time>2020-07-12T06:25:01Z</time>
      </trkpt>
      <trkpt lat="45.34181" lon="6.1348">
        <ele>1662.91</ele>
        <time>2020-07-12T06:24:47Z</time>
      </trkpt>
      <trkpt lat="45.34188" lon="6.13471">
        <ele>1661.79</ele>
        <time>2020-07-12T06:24:33Z</time>
      </trkpt>
      <trkpt lat="45.34193" lon="6.1346">
        <ele>1659.43</ele>
        <time>2020-07-12T06:24:15Z</time>
      </trkpt>
      <trkpt lat="45.34204" lon="6.13459">
        <ele>1652.75</ele>
        <time>2020-07-12T06:24:01Z</time>
      </trkpt>
      <trkpt lat="45.34213" lon="6.13458">
        <ele>1654.04</ele>
        <time>2020-07-12T06:23:52Z</time>
      </trkpt>
      <trkpt lat="45.34224" lon="6.13456">
        <ele>1649.48</ele>
        <time>2020-07-12T06:23:42Z</time>
      </trkpt>
      <trkpt lat="45.34233" lon="6.13456">
        <ele>1647.77</ele>
        <time>2020-07-12T06:23:28Z</time>
      </trkpt>
      <trkpt lat="45.34242" lon="6.1345">
        <ele>1648.08</ele>
        <time>2020-07-12T06:23:22Z</time>
      </trkpt>
      <trkpt lat="45.34251" lon="6.13445">
        <ele>1649.83</ele>
        <time>2020-07-12T06:23:16Z</time>
      </trkpt>
      <trkpt lat="45.3426" lon="6.1344">
        <ele>1648.88</ele>
        <time>2020-07-12T06:22:59Z</time>
      </trkpt>
      <trkpt lat="45.34269" lon="6.13436">
        <ele>1642.69</ele>
        <time>2020-07-12T06:22:45Z</time>
      </trkpt>
      <trkpt lat="45.34278" lon="6.13436">
        <ele>1642.12</ele>
        <time>2020-07-12T06:22:37Z</time>
      </trkpt>
      <trkpt lat="45.34287" lon="6.13431">
        <ele>1644.9</ele>
        <time>2020-07-12T06:22:27Z</time>
      </trkpt>
      <trkpt lat="45.34294" lon="6.13421">
        <ele>1641</ele>
        <time>2020-07-12T06:22:06Z</time>
      </trkpt>
      <trkpt lat="45.34297" lon="6.13409">
        <ele>1635.91</ele>
        <time>2020-07-12T06:21:52Z</time>
      </trkpt>
      <trkpt lat="45.34306" lon="6.13406">
        <ele>1636.88</ele>
        <time>2020-07-12T06:21:44Z</time>
      </trkpt>
      <trkpt lat="45.34305" lon="6.13393">
        <ele>1635.83</ele>
        <time>2020-07-12T06:21:29Z</time>
      </trkpt>
      <trkpt lat="45.34304" lon="6.1338">
        <ele>1630.87</ele>
        <time>2020-07-12T06:21:14Z</time>
      </trkpt>
      <trkpt lat="45.34304" lon="6.13366">
        <ele>1627.04</ele>
        <time>2020-07-12T06:21:00Z</time>
      </trkpt>
      <trkpt lat="45.34306" lon="6.13353">
        <ele>1628.67</ele>
        <time>2020-07-12T06:20:48Z</time>
      </trkpt>
      <trkpt lat="45.34313" lon="6.13343">
        <ele>1628.64</ele>
        <time>2020-07-12T06:20:40Z</time>
      </trkpt>
      <trkpt lat="45.34322" lon="6.13341">
        <ele>1623.91</ele>
        <time>2020-07-12T06:20:25Z</time>
      </trkpt>
      <trkpt lat="45.34327" lon="6.13329">
        <ele>1617.88</ele>
        <time>2020-07-12T06:19:56Z</time>
      </trkpt>
      <trkpt lat="45.34336" lon="6.13326">
        <ele>1611.85</ele>
        <time>2020-07-12T06:19:26Z</time>
      </trkpt>
      <trkpt lat="45.34338" lon="6.13314">
        <ele>1612.71</ele>
        <time>2020-07-12T06:19:15Z</time>
      </trkpt>
      <trkpt lat="45.34345" lon="6.13305">
        <ele>1598.31</ele>
        <time>2020-07-12T06:18:42Z</time>
      </trkpt>
      <trkpt lat="45.34344" lon="6.13292">
        <ele>1597.96</ele>
        <time>2020-07-12T06:18:30Z</time>
      </trkpt>
      <trkpt lat="45.34345" lon="6.13279">
        <ele>1594.72</ele>
        <time>2020-07-12T06:17:43Z</time>
      </trkpt>
      <trkpt lat="45.34347" lon="6.13266">
        <ele>1595.87</ele>
        <time>2020-07-12T06:17:16Z</time>
      </trkpt>
      <trkpt lat="45.34338" lon="6.13261">
        <ele>1593.87</ele>
        <time>2020-07-12T06:17:06Z</time>
      </trkpt>
      <trkpt lat="45.34329" lon="6.13257">
        <ele>1585.67</ele>
        <time>2020-07-12T06:16:53Z</time>
      </trkpt>
      <trkpt lat="45.3432" lon="6.1325">
        <ele>1577.84</ele>
        <time>2020-07-12T06:16:37Z</time>
      </trkpt>
      <trkpt lat="45.34323" lon="6.13237">
        <ele>1577.96</ele>
        <time>2020-07-12T06:16:16Z</time>
      </trkpt>
      <trkpt lat="45.34327" lon="6.13225">
        <ele>1579.04</ele>
        <time>2020-07-12T06:15:54Z</time>
      </trkpt>
      <trkpt lat="45.34336" lon="6.13221">
        <ele>1578.68</ele>
        <time>2020-07-12T06:15:47Z</time>
      </trkpt>
      <trkpt lat="45.34345" lon="6.13219">
        <ele>1579.87</ele>
        <time>2020-07-12T06:15:12Z</time>
      </trkpt>
      <trkpt lat="45.34354" lon="6.13222">
        <ele>1570.76</ele>
        <time>2020-07-12T06:14:58Z</time>
      </trkpt>
      <trkpt lat="45.34361" lon="6.13231">
        <ele>1565.29</ele>
        <time>2020-07-12T06:14:47Z</time>
      </trkpt>
      <trkpt lat="45.34364" lon="6.13204">
        <ele>1572.92</ele>
        <time>2020-07-12T06:13:48Z</time>
      </trkpt>
      <trkpt lat="45.3437" lon="6.13195">
        <ele>1572.83</ele>
        <time>2020-07-12T06:13:37Z</time>
      </trkpt>
      <trkpt lat="45.34374" lon="6.13182">
        <ele>1563.06</ele>
        <time>2020-07-12T06:13:26Z</time>
      </trkpt>
      <trkpt lat="45.34385" lon="6.13178">
        <ele>1572.88</ele>
        <time>2020-07-12T06:12:49Z</time>
      </trkpt>
      <trkpt lat="45.34389" lon="6.13167">
        <ele>1580.03</ele>
        <time>2020-07-12T06:12:35Z</time>
      </trkpt>
      <trkpt lat="45.34399" lon="6.13161">
        <ele>1577.84</ele>
        <time>2020-07-12T06:12:22Z</time>
      </trkpt>
      <trkpt lat="45.34402" lon="6.13142">
        <ele>1564.7</ele>
        <time>2020-07-12T06:11:25Z</time>
      </trkpt>
      <trkpt lat="45.34392" lon="6.13144">
        <ele>1561.18</ele>
        <time>2020-07-12T06:11:11Z</time>
      </trkpt>
      <trkpt lat="45.34383" lon="6.13147">
        <ele>1554.04</ele>
        <time>2020-07-12T06:11:08Z</time>
      </trkpt>
      <trkpt lat="45.34413" lon="6.13117">
        <ele>1558.72</ele>
        <time>2020-07-12T06:10:08Z</time>
      </trkpt>
      <trkpt lat="45.3442" lon="6.1311">
        <ele>1561.93</ele>
        <time>2020-07-12T06:09:57Z</time>
      </trkpt>
      <trkpt lat="45.34423" lon="6.13097">
        <ele>1565.08</ele>
        <time>2020-07-12T06:09:44Z</time>
      </trkpt>
      <trkpt lat="45.34427" lon="6.13086">
        <ele>1556.84</ele>
        <time>2020-07-12T06:09:29Z</time>
      </trkpt>
      <trkpt lat="45.34431" lon="6.13073">
        <ele>1551.92</ele>
        <time>2020-07-12T06:08:47Z</time>
      </trkpt>
      <trkpt lat="45.34437" lon="6.13063">
        <ele>1548.64</ele>
        <time>2020-07-12T06:08:31Z</time>
      </trkpt>
      <trkpt lat="45.34442" lon="6.1305">
        <ele>1548.27</ele>
        <time>2020-07-12T06:08:23Z</time>
      </trkpt>
      <trkpt lat="45.3444" lon="6.13035">
        <ele>1554.02</ele>
        <time>2020-07-12T06:08:00Z</time>
      </trkpt>
      <trkpt lat="45.34441" lon="6.13022">
        <ele>1546.86</ele>
        <time>2020-07-12T06:07:51Z</time>
      </trkpt>
      <trkpt lat="45.3444" lon="6.13008">
        <ele>1541.84</ele>
        <time>2020-07-12T06:07:38Z</time>
      </trkpt>
      <trkpt lat="45.34439" lon="6.12995">
        <ele>1539.44</ele>
        <time>2020-07-12T06:07:31Z</time>
      </trkpt>
      <trkpt lat="45.34442" lon="6.12981">
        <ele>1538.88</ele>
        <time>2020-07-12T06:07:19Z</time>
      </trkpt>
      <trkpt lat="45.34443" lon="6.12968">
        <ele>1536.93</ele>
        <time>2020-07-12T06:07:10Z</time>
      </trkpt>
      <trkpt lat="45.34447" lon="6.12955">
        <ele>1538.88</ele>
        <time>2020-07-12T06:06:54Z</time>
      </trkpt>
      <trkpt lat="45.34451" lon="6.12943">
        <ele>1535.88</ele>
        <time>2020-07-12T06:06:36Z</time>
      </trkpt>
      <trkpt lat="45.34457" lon="6.12932">
        <ele>1531.04</ele>
        <time>2020-07-12T06:06:16Z</time>
      </trkpt>
      <trkpt lat="45.34464" lon="6.12924">
        <ele>1528.84</ele>
        <time>2020-07-12T06:06:02Z</time>
      </trkpt>
      <trkpt lat="45.34469" lon="6.12913">
        <ele>1529.64</ele>
        <time>2020-07-12T06:05:55Z</time>
      </trkpt>
      <trkpt lat="45.34478" lon="6.12905">
        <ele>1525.64</ele>
        <time>2020-07-12T06:05:49Z</time>
      </trkpt>
      <trkpt lat="45.34489" lon="6.12901">
        <ele>1521.08</ele>
        <time>2020-07-12T06:05:43Z</time>
      </trkpt>
      <trkpt lat="45.34497" lon="6.12894">
        <ele>1521.87</ele>
        <time>2020-07-12T06:05:20Z</time>
      </trkpt>
      <trkpt lat="45.34502" lon="6.12882">
        <ele>1518.87</ele>
        <time>2020-07-12T06:05:12Z</time>
      </trkpt>
      <trkpt lat="45.34502" lon="6.12869">
        <ele>1516.72</ele>
        <time>2020-07-12T06:05:02Z</time>
      </trkpt>
      <trkpt lat="45.34504" lon="6.12856">
        <ele>1521.72</ele>
        <time>2020-07-12T06:04:51Z</time>
      </trkpt>
      <trkpt lat="45.34513" lon="6.12852">
        <ele>1523.91</ele>
        <time>2020-07-12T06:04:42Z</time>
      </trkpt>
      <trkpt lat="45.34516" lon="6.12838">
        <ele>1522.88</ele>
        <time>2020-07-12T06:04:34Z</time>
      </trkpt>
      <trkpt lat="45.34525" lon="6.12833">
        <ele>1522.71</ele>
        <time>2020-07-12T06:04:23Z</time>
      </trkpt>
      <trkpt lat="45.34533" lon="6.12828">
        <ele>1513.08</ele>
        <time>2020-07-12T06:04:09Z</time>
      </trkpt>
      <trkpt lat="45.34538" lon="6.12817">
        <ele>1504.67</ele>
        <time>2020-07-12T06:03:43Z</time>
      </trkpt>
      <trkpt lat="45.34547" lon="6.12813">
        <ele>1503.92</ele>
        <time>2020-07-12T06:03:37Z</time>
      </trkpt>
      <trkpt lat="45.34556" lon="6.1281">
        <ele>1503.09</ele>
        <time>2020-07-12T06:03:25Z</time>
      </trkpt>
      <trkpt lat="45.34562" lon="6.12798">
        <ele>1504.88</ele>
        <time>2020-07-12T06:02:52Z</time>
      </trkpt>
      <trkpt lat="45.34572" lon="6.12792">
        <ele>1499.48</ele>
        <time>2020-07-12T06:02:40Z</time>
      </trkpt>
      <trkpt lat="45.34578" lon="6.12781">
        <ele>1494.87</ele>
        <time>2020-07-12T06:02:26Z</time>
      </trkpt>
      <trkpt lat="45.34585" lon="6.12771">
        <ele>1496.91</ele>
        <time>2020-07-12T06:02:13Z</time>
      </trkpt>
      <trkpt lat="45.34593" lon="6.12765">
        <ele>1495.64</ele>
        <time>2020-07-12T06:02:04Z</time>
      </trkpt>
      <trkpt lat="45.34597" lon="6.12752">
        <ele>1491.68</ele>
        <time>2020-07-12T06:01:42Z</time>
      </trkpt>
      <trkpt lat="45.34598" lon="6.12738">
        <ele>1491.73</ele>
        <time>2020-07-12T06:01:28Z</time>
      </trkpt>
      <trkpt lat="45.34589" lon="6.12741">
        <ele>1487.69</ele>
        <time>2020-07-12T06:01:14Z</time>
      </trkpt>
      <trkpt lat="45.3458" lon="6.12743">
        <ele>1488.88</ele>
        <time>2020-07-12T06:00:59Z</time>
      </trkpt>
      <trkpt lat="45.3457" lon="6.12742">
        <ele>1483.04</ele>
        <time>2020-07-12T06:00:44Z</time>
      </trkpt>
      <trkpt lat="45.34562" lon="6.12737">
        <ele>1479.92</ele>
        <time>2020-07-12T06:00:18Z</time>
      </trkpt>
      <trkpt lat="45.34552" lon="6.12732">
        <ele>1479.27</ele>
        <time>2020-07-12T05:59:59Z</time>
      </trkpt>
      <trkpt lat="45.34543" lon="6.12727">
        <ele>1476.95</ele>
        <time>2020-07-12T05:59:48Z</time>
      </trkpt>
      <trkpt lat="45.34534" lon="6.12725">
        <ele>1471.88</ele>
        <time>2020-07-12T05:59:38Z</time>
      </trkpt>
      <trkpt lat="45.34527" lon="6.12716">
        <ele>1464.91</ele>
        <time>2020-07-12T05:59:10Z</time>
      </trkpt>
      <trkpt lat="45.34535" lon="6.12711">
        <ele>1462.03</ele>
        <time>2020-07-12T05:59:04Z</time>
      </trkpt>
      <trkpt lat="45.34541" lon="6.12702">
        <ele>1459.63</ele>
        <time>2020-07-12T05:58:44Z</time>
      </trkpt>
      <trkpt lat="45.34549" lon="6.12695">
        <ele>1455.87</ele>
        <time>2020-07-12T05:58:22Z</time>
      </trkpt>
      <trkpt lat="45.34555" lon="6.12686">
        <ele>1453.72</ele>
        <time>2020-07-12T05:58:05Z</time>
      </trkpt>
      <trkpt lat="45.34563" lon="6.12678">
        <ele>1450.84</ele>
        <time>2020-07-12T05:57:44Z</time>
      </trkpt>
      <trkpt lat="45.34569" lon="6.12667">
        <ele>1445.84</ele>
        <time>2020-07-12T05:57:33Z</time>
      </trkpt>
      <trkpt lat="45.34572" lon="6.12654">
        <ele>1446.07</ele>
        <time>2020-07-12T05:57:11Z</time>
      </trkpt>
      <trkpt lat="45.34563" lon="6.12651">
        <ele>1444.68</ele>
        <time>2020-07-12T05:57:04Z</time>
      </trkpt>
      <trkpt lat="45.34554" lon="6.12647">
        <ele>1439.68</ele>
        <time>2020-07-12T05:56:52Z</time>
      </trkpt>
      <trkpt lat="45.34545" lon="6.12649">
        <ele>1436.64</ele>
        <time>2020-07-12T05:56:45Z</time>
      </trkpt>
      <trkpt lat="45.34537" lon="6.12642">
        <ele>1429.87</ele>
        <time>2020-07-12T05:56:18Z</time>
      </trkpt>
      <trkpt lat="45.34542" lon="6.1263">
        <ele>1426.88</ele>
        <time>2020-07-12T05:56:11Z</time>
      </trkpt>
      <trkpt lat="45.34536" lon="6.12619">
        <ele>1427.68</ele>
        <time>2020-07-12T05:56:02Z</time>
      </trkpt>
      <trkpt lat="45.34535" lon="6.12606">
        <ele>1424.87</ele>
        <time>2020-07-12T05:55:51Z</time>
      </trkpt>
      <trkpt lat="45.3454" lon="6.12595">
        <ele>1421.99</ele>
        <time>2020-07-12T05:55:41Z</time>
      </trkpt>
      <trkpt lat="45.34543" lon="6.12582">
        <ele>1420.84</ele>
        <time>2020-07-12T05:55:35Z</time>
      </trkpt>
      <trkpt lat="45.3455" lon="6.12573">
        <ele>1422.79</ele>
        <time>2020-07-12T05:55:14Z</time>
      </trkpt>
      <trkpt lat="45.34558" lon="6.12565">
        <ele>1420.87</ele>
        <time>2020-07-12T05:55:08Z</time>
      </trkpt>
      <trkpt lat="45.34567" lon="6.12562">
        <ele>1416.65</ele>
        <time>2020-07-12T05:54:51Z</time>
      </trkpt>
      <trkpt lat="45.34576" lon="6.1256">
        <ele>1417.93</ele>
        <time>2020-07-12T05:54:21Z</time>
      </trkpt>
      <trkpt lat="45.34584" lon="6.12552">
        <ele>1411.87</ele>
        <time>2020-07-12T05:54:02Z</time>
      </trkpt>
      <trkpt lat="45.34587" lon="6.12538">
        <ele>1402.84</ele>
        <time>2020-07-12T05:53:35Z</time>
      </trkpt>
      <trkpt lat="45.34579" lon="6.12532">
        <ele>1398.68</ele>
        <time>2020-07-12T05:53:27Z</time>
      </trkpt>
      <trkpt lat="45.3457" lon="6.12526">
        <ele>1396.91</ele>
        <time>2020-07-12T05:53:14Z</time>
      </trkpt>
      <trkpt lat="45.34562" lon="6.1252">
        <ele>1393.68</ele>
        <time>2020-07-12T05:53:03Z</time>
      </trkpt>
      <trkpt lat="45.34552" lon="6.1252">
        <ele>1393.67</ele>
        <time>2020-07-12T05:52:56Z</time>
      </trkpt>
      <trkpt lat="45.34543" lon="6.12521">
        <ele>1390.47</ele>
        <time>2020-07-12T05:52:49Z</time>
      </trkpt>
      <trkpt lat="45.34534" lon="6.12515">
        <ele>1389.68</ele>
        <time>2020-07-12T05:52:41Z</time>
      </trkpt>
      <trkpt lat="45.34526" lon="6.1251">
        <ele>1389.82</ele>
        <time>2020-07-12T05:52:19Z</time>
      </trkpt>
      <trkpt lat="45.34516" lon="6.12511">
        <ele>1386.44</ele>
        <time>2020-07-12T05:52:12Z</time>
      </trkpt>
      <trkpt lat="45.34506" lon="6.12511">
        <ele>1384.42</ele>
        <time>2020-07-12T05:51:56Z</time>
      </trkpt>
      <trkpt lat="45.34496" lon="6.12513">
        <ele>1375.68</ele>
        <time>2020-07-12T05:51:49Z</time>
      </trkpt>
      <trkpt lat="45.34487" lon="6.12509">
        <ele>1369.86</ele>
        <time>2020-07-12T05:51:29Z</time>
      </trkpt>
      <trkpt lat="45.34485" lon="6.12494">
        <ele>1363.96</ele>
        <time>2020-07-12T05:50:50Z</time>
      </trkpt>
      <trkpt lat="45.34495" lon="6.12487">
        <ele>1364.64</ele>
        <time>2020-07-12T05:50:28Z</time>
      </trkpt>
      <trkpt lat="45.34499" lon="6.12476">
        <ele>1366.12</ele>
        <time>2020-07-12T05:50:14Z</time>
      </trkpt>
      <trkpt lat="45.34508" lon="6.12479">
        <ele>1360.87</ele>
        <time>2020-07-12T05:50:04Z</time>
      </trkpt>
      <trkpt lat="45.34509" lon="6.12466">
        <ele>1360.04</ele>
        <time>2020-07-12T05:49:56Z</time>
      </trkpt>
      <trkpt lat="45.345" lon="6.12459">
        <ele>1356.88</ele>
        <time>2020-07-12T05:49:41Z</time>
      </trkpt>
      <trkpt lat="45.34492" lon="6.12454">
        <ele>1357.84</ele>
        <time>2020-07-12T05:49:33Z</time>
      </trkpt>
      <trkpt lat="45.34483" lon="6.12452">
        <ele>1352.67</ele>
        <time>2020-07-12T05:49:19Z</time>
      </trkpt>
      <trkpt lat="45.34474" lon="6.12451">
        <ele>1352.09</ele>
        <time>2020-07-12T05:49:01Z</time>
      </trkpt>
      <trkpt lat="45.34465" lon="6.12446">
        <ele>1350.83</ele>
        <time>2020-07-12T05:48:53Z</time>
      </trkpt>
      <trkpt lat="45.34456" lon="6.12451">
        <ele>1348.04</ele>
        <time>2020-07-12T05:48:43Z</time>
      </trkpt>
      <trkpt lat="45.34447" lon="6.12456">
        <ele>1343.89</ele>
        <time>2020-07-12T05:48:32Z</time>
      </trkpt>
      <trkpt lat="45.34439" lon="6.12461">
        <ele>1344.4</ele>
        <time>2020-07-12T05:48:13Z</time>
      </trkpt>
      <trkpt lat="45.34428" lon="6.12464">
        <ele>1337.67</ele>
        <time>2020-07-12T05:48:01Z</time>
      </trkpt>
      <trkpt lat="45.34421" lon="6.12474">
        <ele>1334.91</ele>
        <time>2020-07-12T05:47:50Z</time>
      </trkpt>
      <trkpt lat="45.34412" lon="6.12475">
        <ele>1331.91</ele>
        <time>2020-07-12T05:47:36Z</time>
      </trkpt>
      <trkpt lat="45.34403" lon="6.1247">
        <ele>1329.87</ele>
        <time>2020-07-12T05:47:28Z</time>
      </trkpt>
      <trkpt lat="45.34395" lon="6.12462">
        <ele>1326.82</ele>
        <time>2020-07-12T05:47:19Z</time>
      </trkpt>
      <trkpt lat="45.34387" lon="6.12456">
        <ele>1320.68</ele>
        <time>2020-07-12T05:47:10Z</time>
      </trkpt>
      <trkpt lat="45.34384" lon="6.12443">
        <ele>1315.09</ele>
        <time>2020-07-12T05:46:33Z</time>
      </trkpt>
      <trkpt lat="45.34387" lon="6.12431">
        <ele>1319.48</ele>
        <time>2020-07-12T05:46:21Z</time>
      </trkpt>
      <trkpt lat="45.34379" lon="6.12422">
        <ele>1314.64</ele>
        <time>2020-07-12T05:45:47Z</time>
      </trkpt>
      <trkpt lat="45.3437" lon="6.12426">
        <ele>1312.64</ele>
        <time>2020-07-12T05:45:38Z</time>
      </trkpt>
      <trkpt lat="45.34361" lon="6.12429">
        <ele>1308.67</ele>
        <time>2020-07-12T05:45:30Z</time>
      </trkpt>
      <trkpt lat="45.34353" lon="6.12423">
        <ele>1308.68</ele>
        <time>2020-07-12T05:45:13Z</time>
      </trkpt>
      <trkpt lat="45.34344" lon="6.12421">
        <ele>1304.68</ele>
        <time>2020-07-12T05:44:58Z</time>
      </trkpt>
      <trkpt lat="45.34334" lon="6.12421">
        <ele>1302.88</ele>
        <time>2020-07-12T05:44:51Z</time>
      </trkpt>
      <trkpt lat="45.34325" lon="6.12417">
        <ele>1298.26</ele>
        <time>2020-07-12T05:44:28Z</time>
      </trkpt>
      <trkpt lat="45.34314" lon="6.12415">
        <ele>1297.88</ele>
        <time>2020-07-12T05:44:21Z</time>
      </trkpt>
      <trkpt lat="45.34305" lon="6.1241">
        <ele>1293.67</ele>
        <time>2020-07-12T05:43:51Z</time>
      </trkpt>
      <trkpt lat="45.343" lon="6.12399">
        <ele>1292.68</ele>
        <time>2020-07-12T05:43:39Z</time>
      </trkpt>
      <trkpt lat="45.34294" lon="6.12389">
        <ele>1288.68</ele>
        <time>2020-07-12T05:43:14Z</time>
      </trkpt>
      <trkpt lat="45.34286" lon="6.12397">
        <ele>1284.84</ele>
        <time>2020-07-12T05:43:04Z</time>
      </trkpt>
      <trkpt lat="45.34277" lon="6.12398">
        <ele>1282.84</ele>
        <time>2020-07-12T05:42:55Z</time>
      </trkpt>
      <trkpt lat="45.3427" lon="6.12407">
        <ele>1282.68</ele>
        <time>2020-07-12T05:42:45Z</time>
      </trkpt>
      <trkpt lat="45.34262" lon="6.12413">
        <ele>1284.04</ele>
        <time>2020-07-12T05:42:23Z</time>
      </trkpt>
      <trkpt lat="45.34255" lon="6.12424">
        <ele>1280.83</ele>
        <time>2020-07-12T05:42:01Z</time>
      </trkpt>
      <trkpt lat="45.34245" lon="6.12427">
        <ele>1272.92</ele>
        <time>2020-07-12T05:41:48Z</time>
      </trkpt>
      <trkpt lat="45.34237" lon="6.12423">
        <ele>1274.04</ele>
        <time>2020-07-12T05:41:34Z</time>
      </trkpt>
      <trkpt lat="45.34226" lon="6.12425">
        <ele>1272.16</ele>
        <time>2020-07-12T05:41:25Z</time>
      </trkpt>
      <trkpt lat="45.34217" lon="6.12425">
        <ele>1273.87</ele>
        <time>2020-07-12T05:41:16Z</time>
      </trkpt>
      <trkpt lat="45.34208" lon="6.12429">
        <ele>1276.81</ele>
        <time>2020-07-12T05:41:01Z</time>
      </trkpt>
      <trkpt lat="45.34198" lon="6.12431">
        <ele>1274.68</ele>
        <time>2020-07-12T05:40:57Z</time>
      </trkpt>
      <trkpt lat="45.34189" lon="6.12429">
        <ele>1272.12</ele>
        <time>2020-07-12T05:40:37Z</time>
      </trkpt>
      <trkpt lat="45.34179" lon="6.12431">
        <ele>1272.88</ele>
        <time>2020-07-12T05:40:31Z</time>
      </trkpt>
      <trkpt lat="45.34171" lon="6.12434">
        <ele>1272.04</ele>
        <time>2020-07-12T05:40:20Z</time>
      </trkpt>
      <trkpt lat="45.34161" lon="6.12437">
        <ele>1273.88</ele>
        <time>2020-07-12T05:40:13Z</time>
      </trkpt>
      <trkpt lat="45.34154" lon="6.12428">
        <ele>1273.88</ele>
        <time>2020-07-12T05:40:03Z</time>
      </trkpt>
      <trkpt lat="45.34147" lon="6.1242">
        <ele>1274.92</ele>
        <time>2020-07-12T05:39:55Z</time>
      </trkpt>
      <trkpt lat="45.34138" lon="6.12418">
        <ele>1274.08</ele>
        <time>2020-07-12T05:39:48Z</time>
      </trkpt>
      <trkpt lat="45.34128" lon="6.12413">
        <ele>1275.08</ele>
        <time>2020-07-12T05:39:40Z</time>
      </trkpt>
      <trkpt lat="45.34119" lon="6.12416">
        <ele>1275.08</ele>
        <time>2020-07-12T05:39:33Z</time>
      </trkpt>
      <trkpt lat="45.3411" lon="6.12417">
        <ele>1274.91</ele>
        <time>2020-07-12T05:39:26Z</time>
      </trkpt>
      <trkpt lat="45.341" lon="6.12418">
        <ele>1274.87</ele>
        <time>2020-07-12T05:39:19Z</time>
      </trkpt>
      <trkpt lat="45.34091" lon="6.12421">
        <ele>1275.76</ele>
        <time>2020-07-12T05:39:10Z</time>
      </trkpt>
      <trkpt lat="45.34083" lon="6.12426">
        <ele>1265.26</ele>
        <time>2020-07-12T05:38:31Z</time>
      </trkpt>
      <trkpt lat="45.34073" lon="6.12428">
        <ele>1260.08</ele>
        <time>2020-07-12T05:38:23Z</time>
      </trkpt>
      <trkpt lat="45.34066" lon="6.12418">
        <ele>1257.54</ele>
        <time>2020-07-12T05:38:16Z</time>
      </trkpt>
      <trkpt lat="45.34058" lon="6.1241">
        <ele>1258.88</ele>
        <time>2020-07-12T05:37:59Z</time>
      </trkpt>
      <trkpt lat="45.34053" lon="6.12399">
        <ele>1256.01</ele>
        <time>2020-07-12T05:37:44Z</time>
      </trkpt>
      <trkpt lat="45.34043" lon="6.12399">
        <ele>1255.6</ele>
        <time>2020-07-12T05:37:36Z</time>
      </trkpt>
      <trkpt lat="45.34034" lon="6.12398">
        <ele>1250.71</ele>
        <time>2020-07-12T05:37:27Z</time>
      </trkpt>
      <trkpt lat="45.34025" lon="6.12395">
        <ele>1251.05</ele>
        <time>2020-07-12T05:37:19Z</time>
      </trkpt>
      <trkpt lat="45.34014" lon="6.12392">
        <ele>1250.84</ele>
        <time>2020-07-12T05:37:12Z</time>
      </trkpt>
      <trkpt lat="45.34006" lon="6.12401">
        <ele>1249.73</ele>
        <time>2020-07-12T05:37:05Z</time>
      </trkpt>
      <trkpt lat="45.33998" lon="6.12396">
        <ele>1253.24</ele>
        <time>2020-07-12T05:36:57Z</time>
      </trkpt>
      <trkpt lat="45.33988" lon="6.12396">
        <ele>1253.18</ele>
        <time>2020-07-12T05:36:51Z</time>
      </trkpt>
      <trkpt lat="45.3398" lon="6.12402">
        <ele>1250.05</ele>
        <time>2020-07-12T05:36:41Z</time>
      </trkpt>
      <trkpt lat="45.33971" lon="6.12399">
        <ele>1251.07</ele>
        <time>2020-07-12T05:36:26Z</time>
      </trkpt>
      <trkpt lat="45.33962" lon="6.12397">
        <ele>1251.84</ele>
        <time>2020-07-12T05:36:16Z</time>
      </trkpt>
      <trkpt lat="45.33953" lon="6.124">
        <ele>1246.03</ele>
        <time>2020-07-12T05:36:03Z</time>
      </trkpt>
      <trkpt lat="45.33943" lon="6.12399">
        <ele>1245.07</ele>
        <time>2020-07-12T05:35:50Z</time>
      </trkpt>
      <trkpt lat="45.33934" lon="6.12399">
        <ele>1244.89</ele>
        <time>2020-07-12T05:35:38Z</time>
      </trkpt>
      <trkpt lat="45.33926" lon="6.12391">
        <ele>1246.52</ele>
        <time>2020-07-12T05:35:28Z</time>
      </trkpt>
      <trkpt lat="45.33916" lon="6.12387">
        <ele>1243.88</ele>
        <time>2020-07-12T05:35:18Z</time>
      </trkpt>
      <trkpt lat="45.33908" lon="6.1238">
        <ele>1238.88</ele>
        <time>2020-07-12T05:35:01Z</time>
      </trkpt>
      <trkpt lat="45.33902" lon="6.12368">
        <ele>1238.68</ele>
        <time>2020-07-12T05:34:52Z</time>
      </trkpt>
      <trkpt lat="45.33893" lon="6.12365">
        <ele>1238.12</ele>
        <time>2020-07-12T05:34:45Z</time>
      </trkpt>
      <trkpt lat="45.33884" lon="6.12364">
        <ele>1237.73</ele>
        <time>2020-07-12T05:34:37Z</time>
      </trkpt>
      <trkpt lat="45.33874" lon="6.12361">
        <ele>1240.27</ele>
        <time>2020-07-12T05:34:29Z</time>
      </trkpt>
      <trkpt lat="45.33866" lon="6.12352">
        <ele>1237.07</ele>
        <time>2020-07-12T05:34:19Z</time>
      </trkpt>
      <trkpt lat="45.33857" lon="6.12352">
        <ele>1233.64</ele>
        <time>2020-07-12T05:34:11Z</time>
      </trkpt>
      <trkpt lat="45.33847" lon="6.12355">
        <ele>1228.82</ele>
        <time>2020-07-12T05:33:56Z</time>
      </trkpt>
      <trkpt lat="45.33837" lon="6.12357">
        <ele>1220.93</ele>
        <time>2020-07-12T05:33:47Z</time>
      </trkpt>
      <trkpt lat="45.33829" lon="6.12351">
        <ele>1223.84</ele>
        <time>2020-07-12T05:33:38Z</time>
      </trkpt>
      <trkpt lat="45.3382" lon="6.12353">
        <ele>1221.83</ele>
        <time>2020-07-12T05:33:31Z</time>
      </trkpt>
      <trkpt lat="45.33811" lon="6.12353">
        <ele>1217.72</ele>
        <time>2020-07-12T05:33:26Z</time>
      </trkpt>
      <trkpt lat="45.33801" lon="6.12349">
        <ele>1215.67</ele>
        <time>2020-07-12T05:33:03Z</time>
      </trkpt>
      <trkpt lat="45.33795" lon="6.12339">
        <ele>1207.84</ele>
        <time>2020-07-12T05:32:51Z</time>
      </trkpt>
      <trkpt lat="45.33785" lon="6.12338">
        <ele>1204.92</ele>
        <time>2020-07-12T05:32:46Z</time>
      </trkpt>
      <trkpt lat="45.33776" lon="6.12335">
        <ele>1204.38</ele>
        <time>2020-07-12T05:32:39Z</time>
      </trkpt>
      <trkpt lat="45.33768" lon="6.12326">
        <ele>1209.84</ele>
        <time>2020-07-12T05:32:34Z</time>
      </trkpt>
      <trkpt lat="45.33765" lon="6.12313">
        <ele>1212.96</ele>
        <time>2020-07-12T05:32:28Z</time>
      </trkpt>
      <trkpt lat="45.33757" lon="6.12305">
        <ele>1214.71</ele>
        <time>2020-07-12T05:32:23Z</time>
      </trkpt>
      <trkpt lat="45.33747" lon="6.12299">
        <ele>1211.64</ele>
        <time>2020-07-12T05:32:16Z</time>
      </trkpt>
      <trkpt lat="45.33738" lon="6.12294">
        <ele>1211.88</ele>
        <time>2020-07-12T05:32:03Z</time>
      </trkpt>
      <trkpt lat="45.33731" lon="6.12286">
        <ele>1209.87</ele>
        <time>2020-07-12T05:31:43Z</time>
      </trkpt>
      <trkpt lat="45.33723" lon="6.1228">
        <ele>1207.04</ele>
        <time>2020-07-12T05:31:33Z</time>
      </trkpt>
      <trkpt lat="45.33711" lon="6.12281">
        <ele>1206.88</ele>
        <time>2020-07-12T05:31:12Z</time>
      </trkpt>
      <trkpt lat="45.33702" lon="6.12277">
        <ele>1206.87</ele>
        <time>2020-07-12T05:30:56Z</time>
      </trkpt>
      <trkpt lat="45.33692" lon="6.12275">
        <ele>1205.04</ele>
        <time>2020-07-12T05:30:49Z</time>
      </trkpt>
      <trkpt lat="45.33683" lon="6.1227">
        <ele>1202.88</ele>
        <time>2020-07-12T05:30:24Z</time>
      </trkpt>
      <trkpt lat="45.33673" lon="6.12274">
        <ele>1202.88</ele>
        <time>2020-07-12T05:30:13Z</time>
      </trkpt>
      <trkpt lat="45.33664" lon="6.12271">
        <ele>1201.88</ele>
        <time>2020-07-12T05:30:06Z</time>
      </trkpt>
      <trkpt lat="45.33656" lon="6.12268">
        <ele>1200.83</ele>
        <time>2020-07-12T05:29:52Z</time>
      </trkpt>
      <trkpt lat="45.33645" lon="6.12273">
        <ele>1199.45</ele>
        <time>2020-07-12T05:29:42Z</time>
      </trkpt>
      <trkpt lat="45.33636" lon="6.12277">
        <ele>1197.48</ele>
        <time>2020-07-12T05:29:35Z</time>
      </trkpt>
      <trkpt lat="45.33627" lon="6.12281">
        <ele>1194.88</ele>
        <time>2020-07-12T05:29:26Z</time>
      </trkpt>
      <trkpt lat="45.33619" lon="6.12287">
        <ele>1195.09</ele>
        <time>2020-07-12T05:29:17Z</time>
      </trkpt>
      <trkpt lat="45.33616" lon="6.12299">
        <ele>1194.07</ele>
        <time>2020-07-12T05:29:08Z</time>
      </trkpt>
      <trkpt lat="45.33612" lon="6.12312">
        <ele>1189.96</ele>
        <time>2020-07-12T05:28:58Z</time>
      </trkpt>
      <trkpt lat="45.33605" lon="6.12322">
        <ele>1189.87</ele>
        <time>2020-07-12T05:28:48Z</time>
      </trkpt>
      <trkpt lat="45.33598" lon="6.1233">
        <ele>1187.68</ele>
        <time>2020-07-12T05:28:31Z</time>
      </trkpt>
      <trkpt lat="45.33592" lon="6.12341">
        <ele>1187.67</ele>
        <time>2020-07-12T05:28:14Z</time>
      </trkpt>
      <trkpt lat="45.33584" lon="6.12344">
        <ele>1181.8</ele>
        <time>2020-07-12T05:28:06Z</time>
      </trkpt>
      <trkpt lat="45.33576" lon="6.12352">
        <ele>1178.65</ele>
        <time>2020-07-12T05:27:59Z</time>
      </trkpt>
      <trkpt lat="45.33568" lon="6.12358">
        <ele>1179.85</ele>
        <time>2020-07-12T05:27:51Z</time>
      </trkpt>
      <trkpt lat="45.3356" lon="6.12367">
        <ele>1179.88</ele>
        <time>2020-07-12T05:27:44Z</time>
      </trkpt>
      <trkpt lat="45.33552" lon="6.12374">
        <ele>1178.85</ele>
        <time>2020-07-12T05:27:33Z</time>
      </trkpt>
      <trkpt lat="45.33542" lon="6.12373">
        <ele>1174.99</ele>
        <time>2020-07-12T05:27:16Z</time>
      </trkpt>
      <trkpt lat="45.33533" lon="6.12374">
        <ele>1176.84</ele>
        <time>2020-07-12T05:27:04Z</time>
      </trkpt>
      <trkpt lat="45.33528" lon="6.12362">
        <ele>1163.6</ele>
        <time>2020-07-12T05:26:36Z</time>
      </trkpt>
      <trkpt lat="45.33526" lon="6.12349">
        <ele>1160.8</ele>
        <time>2020-07-12T05:26:19Z</time>
      </trkpt>
      <trkpt lat="45.3352" lon="6.12336">
        <ele>1157.6</ele>
        <time>2020-07-12T05:26:08Z</time>
      </trkpt>
      <trkpt lat="45.33511" lon="6.12328">
        <ele>1162.68</ele>
        <time>2020-07-12T05:25:57Z</time>
      </trkpt>
      <trkpt lat="45.33512" lon="6.12315">
        <ele>1161.87</ele>
        <time>2020-07-12T05:25:41Z</time>
      </trkpt>
      <trkpt lat="45.33509" lon="6.12302">
        <ele>1155.88</ele>
        <time>2020-07-12T05:25:27Z</time>
      </trkpt>
      <trkpt lat="45.33504" lon="6.12291">
        <ele>1153.67</ele>
        <time>2020-07-12T05:25:06Z</time>
      </trkpt>
      <trkpt lat="45.33496" lon="6.12285">
        <ele>1150.04</ele>
        <time>2020-07-12T05:24:54Z</time>
      </trkpt>
      <trkpt lat="45.33492" lon="6.12273">
        <ele>1147.67</ele>
        <time>2020-07-12T05:24:41Z</time>
      </trkpt>
      <trkpt lat="45.33487" lon="6.12261">
        <ele>1142.88</ele>
        <time>2020-07-12T05:24:25Z</time>
      </trkpt>
      <trkpt lat="45.33484" lon="6.12248">
        <ele>1141.12</ele>
        <time>2020-07-12T05:24:06Z</time>
      </trkpt>
      <trkpt lat="45.33482" lon="6.12235">
        <ele>1139.04</ele>
        <time>2020-07-12T05:23:51Z</time>
      </trkpt>
      <trkpt lat="45.33481" lon="6.12221">
        <ele>1138.88</ele>
        <time>2020-07-12T05:23:35Z</time>
      </trkpt>
      <trkpt lat="45.33478" lon="6.12208">
        <ele>1136.63</ele>
        <time>2020-07-12T05:23:13Z</time>
      </trkpt>
      <trkpt lat="45.33474" lon="6.12196">
        <ele>1128.35</ele>
        <time>2020-07-12T05:22:56Z</time>
      </trkpt>
      <trkpt lat="45.33478" lon="6.12183">
        <ele>1116.74</ele>
        <time>2020-07-12T05:22:34Z</time>
      </trkpt>
      <trkpt lat="45.3348" lon="6.12169">
        <ele>1123.83</ele>
        <time>2020-07-12T05:22:22Z</time>
      </trkpt>
      <trkpt lat="45.33483" lon="6.12157">
        <ele>1119.84</ele>
        <time>2020-07-12T05:22:02Z</time>
      </trkpt>
      <trkpt lat="45.33489" lon="6.12144">
        <ele>1112.77</ele>
        <time>2020-07-12T05:21:40Z</time>
      </trkpt>
      <trkpt lat="45.3349" lon="6.12131">
        <ele>1114.84</ele>
        <time>2020-07-12T05:21:09Z</time>
      </trkpt>
      <trkpt lat="45.33492" lon="6.12119">
        <ele>1113.65</ele>
        <time>2020-07-12T05:20:53Z</time>
      </trkpt>
      <trkpt lat="45.33491" lon="6.12106">
        <ele>1113.84</ele>
        <time>2020-07-12T05:20:36Z</time>
      </trkpt>
      <trkpt lat="45.33497" lon="6.12096">
        <ele>1106.88</ele>
        <time>2020-07-12T05:20:23Z</time>
      </trkpt>
      <trkpt lat="45.33498" lon="6.12082">
        <ele>1106.43</ele>
        <time>2020-07-12T05:20:14Z</time>
      </trkpt>
      <trkpt lat="45.33493" lon="6.12071">
        <ele>1100.86</ele>
        <time>2020-07-12T05:19:56Z</time>
      </trkpt>
      <trkpt lat="45.33497" lon="6.12059">
        <ele>1093.29</ele>
        <time>2020-07-12T05:19:45Z</time>
      </trkpt>
      <trkpt lat="45.33494" lon="6.12045">
        <ele>1090.06</ele>
        <time>2020-07-12T05:19:08Z</time>
      </trkpt>
      <trkpt lat="45.33497" lon="6.12031">
        <ele>1088.88</ele>
        <time>2020-07-12T05:18:41Z</time>
      </trkpt>
      <trkpt lat="45.335" lon="6.12019">
        <ele>1088.25</ele>
        <time>2020-07-12T05:18:23Z</time>
      </trkpt>
      <trkpt lat="45.33503" lon="6.12006">
        <ele>1091.92</ele>
        <time>2020-07-12T05:18:16Z</time>
      </trkpt>
      <trkpt lat="45.33507" lon="6.11994">
        <ele>1092.88</ele>
        <time>2020-07-12T05:18:07Z</time>
      </trkpt>
      <trkpt lat="45.33514" lon="6.11985">
        <ele>1092.88</ele>
        <time>2020-07-12T05:17:59Z</time>
      </trkpt>
      <trkpt lat="45.33524" lon="6.1198">
        <ele>1093.84</ele>
        <time>2020-07-12T05:17:51Z</time>
      </trkpt>
      <trkpt lat="45.33534" lon="6.11978">
        <ele>1083.72</ele>
        <time>2020-07-12T05:16:15Z</time>
      </trkpt>
      <trkpt lat="45.33531" lon="6.1199">
        <ele>1089.08</ele>
        <time>2020-07-12T05:15:57Z</time>
      </trkpt>
      <trkpt lat="45.33539" lon="6.11998">
        <ele>1092.89</ele>
        <time>2020-07-12T05:15:43Z</time>
      </trkpt>
      <trkpt lat="45.33546" lon="6.12007">
        <ele>1093.93</ele>
        <time>2020-07-12T05:15:33Z</time>
      </trkpt>
      <trkpt lat="45.33554" lon="6.12011">
        <ele>1093.84</ele>
        <time>2020-07-12T05:15:23Z</time>
      </trkpt>
      <trkpt lat="45.33563" lon="6.12015">
        <ele>1093.64</ele>
        <time>2020-07-12T05:15:10Z</time>
      </trkpt>
      <trkpt lat="45.33573" lon="6.12015">
        <ele>1088.88</ele>
        <time>2020-07-12T05:15:03Z</time>
      </trkpt>
      <trkpt lat="45.33582" lon="6.12017">
        <ele>1086.03</ele>
        <time>2020-07-12T05:14:42Z</time>
      </trkpt>
      <trkpt lat="45.33591" lon="6.12017">
        <ele>1084.89</ele>
        <time>2020-07-12T05:14:37Z</time>
      </trkpt>
      <trkpt lat="45.33601" lon="6.12015">
        <ele>1086.68</ele>
        <time>2020-07-12T05:14:28Z</time>
      </trkpt>
      <trkpt lat="45.33608" lon="6.12007">
        <ele>1084.89</ele>
        <time>2020-07-12T05:14:18Z</time>
      </trkpt>
      <trkpt lat="45.33617" lon="6.12003">
        <ele>1088.09</ele>
        <time>2020-07-12T05:14:06Z</time>
      </trkpt>
      <trkpt lat="45.33626" lon="6.11998">
        <ele>1091.89</ele>
        <time>2020-07-12T05:13:44Z</time>
      </trkpt>
      <trkpt lat="45.33619" lon="6.11987">
        <ele>1091.68</ele>
        <time>2020-07-12T05:13:26Z</time>
      </trkpt>
      <trkpt lat="45.33611" lon="6.1198">
        <ele>1092.71</ele>
        <time>2020-07-12T05:13:19Z</time>
      </trkpt>
      <trkpt lat="45.336" lon="6.11977">
        <ele>1087.69</ele>
        <time>2020-07-12T05:13:05Z</time>
      </trkpt>
      <trkpt lat="45.33591" lon="6.1197">
        <ele>1088.28</ele>
        <time>2020-07-12T05:12:59Z</time>
      </trkpt>
      <trkpt lat="45.33584" lon="6.11963">
        <ele>1084.88</ele>
        <time>2020-07-12T05:12:46Z</time>
        <extensions>
          <visugpx:TrkExtension xmlns:visugpx="https://www.visugpx.com/editgpx/">
            <visugpx:node>1</visugpx:node>
            </visugpx:TrkExtension>
        </extensions>
      </trkpt>
    </trkseg>
  </trk>
</gpx>